<?xml version="1.0" encoding="UTF-8" standalone="no" ?>
<gpx xmlns="http://www.topografix.com/GPX/1/1" xmlns:xsi="http://www.w3.org/2001/XMLSchema-instance" xsi:schemaLocation="http://www.topografix.com/GPX/1/1 http://www.topografix.com/GPX/1/1/gpx.xsd" version="1.1" creator="VisuGPX - https://www.visugpx.com">
  <metadata>
    <name>Promenade du bout du Monde</name>
    <desc><![CDATA[Petit tour au départ de Mortagne.]]></desc>
  </metadata>
  <trk>
    <name><![CDATA[07-JAN-17 13:18:01]]></name>
    <trkseg>
      <trkpt lat="48.26762" lon="6.75614">
        <ele>463.97</ele>
        <time>2017-01-07T08:44:16Z</time>
      </trkpt>
      <trkpt lat="48.26762" lon="6.75615">
        <ele>463.97</ele>
        <time>2017-01-07T08:44:40Z</time>
      </trkpt>
      <trkpt lat="48.26761" lon="6.75615">
        <ele>463.49</ele>
        <time>2017-01-07T08:45:02Z</time>
      </trkpt>
      <trkpt lat="48.26761" lon="6.75613">
        <ele>462.05</ele>
        <time>2017-01-07T08:45:20Z</time>
      </trkpt>
      <trkpt lat="48.26763" lon="6.75608">
        <ele>461.09</ele>
        <time>2017-01-07T08:45:30Z</time>
      </trkpt>
      <trkpt lat="48.26766" lon="6.75606">
        <ele>460.61</ele>
        <time>2017-01-07T08:45:35Z</time>
      </trkpt>
      <trkpt lat="48.26782" lon="6.75583">
        <ele>460.13</ele>
        <time>2017-01-07T08:45:52Z</time>
      </trkpt>
      <trkpt lat="48.26802" lon="6.75555">
        <ele>459.65</ele>
        <time>2017-01-07T08:46:09Z</time>
      </trkpt>
      <trkpt lat="48.26818" lon="6.75529">
        <ele>459.17</ele>
        <time>2017-01-07T08:46:25Z</time>
      </trkpt>
      <trkpt lat="48.26838" lon="6.7551">
        <ele>459.65</ele>
        <time>2017-01-07T08:46:41Z</time>
      </trkpt>
      <trkpt lat="48.26861" lon="6.75497">
        <ele>458.69</ele>
        <time>2017-01-07T08:46:58Z</time>
      </trkpt>
      <trkpt lat="48.26883" lon="6.75497">
        <ele>457.72</ele>
        <time>2017-01-07T08:47:15Z</time>
      </trkpt>
      <trkpt lat="48.26914" lon="6.75507">
        <ele>458.69</ele>
        <time>2017-01-07T08:47:37Z</time>
      </trkpt>
      <trkpt lat="48.26942" lon="6.75526">
        <ele>459.17</ele>
        <time>2017-01-07T08:47:58Z</time>
      </trkpt>
      <trkpt lat="48.26977" lon="6.75533">
        <ele>458.69</ele>
        <time>2017-01-07T08:48:20Z</time>
      </trkpt>
      <trkpt lat="48.27008" lon="6.75558">
        <ele>458.21</ele>
        <time>2017-01-07T08:48:45Z</time>
      </trkpt>
      <trkpt lat="48.2704" lon="6.75576">
        <ele>456.28</ele>
        <time>2017-01-07T08:49:06Z</time>
      </trkpt>
      <trkpt lat="48.27069" lon="6.75585">
        <ele>452.92</ele>
        <time>2017-01-07T08:49:25Z</time>
      </trkpt>
      <trkpt lat="48.27097" lon="6.75595">
        <ele>449.07</ele>
        <time>2017-01-07T08:49:42Z</time>
      </trkpt>
      <trkpt lat="48.27123" lon="6.75597">
        <ele>446.67</ele>
        <time>2017-01-07T08:50:00Z</time>
      </trkpt>
      <trkpt lat="48.27142" lon="6.75571">
        <ele>442.34</ele>
        <time>2017-01-07T08:50:15Z</time>
      </trkpt>
      <trkpt lat="48.27139" lon="6.75538">
        <ele>441.86</ele>
        <time>2017-01-07T08:50:29Z</time>
      </trkpt>
      <trkpt lat="48.2713" lon="6.75496">
        <ele>440.42</ele>
        <time>2017-01-07T08:50:47Z</time>
      </trkpt>
      <trkpt lat="48.27115" lon="6.75443">
        <ele>439.94</ele>
        <time>2017-01-07T08:51:10Z</time>
      </trkpt>
      <trkpt lat="48.27093" lon="6.75396">
        <ele>439.46</ele>
        <time>2017-01-07T08:51:33Z</time>
      </trkpt>
      <trkpt lat="48.27076" lon="6.75357">
        <ele>439.46</ele>
        <time>2017-01-07T08:51:52Z</time>
      </trkpt>
      <trkpt lat="48.27067" lon="6.75323">
        <ele>441.38</ele>
        <time>2017-01-07T08:52:12Z</time>
      </trkpt>
      <trkpt lat="48.27062" lon="6.75292">
        <ele>442.82</ele>
        <time>2017-01-07T08:52:27Z</time>
      </trkpt>
      <trkpt lat="48.27058" lon="6.75267">
        <ele>440.42</ele>
        <time>2017-01-07T08:52:37Z</time>
      </trkpt>
      <trkpt lat="48.27079" lon="6.75237">
        <ele>433.69</ele>
        <time>2017-01-07T08:52:56Z</time>
      </trkpt>
      <trkpt lat="48.27102" lon="6.75212">
        <ele>430.81</ele>
        <time>2017-01-07T08:53:13Z</time>
      </trkpt>
      <trkpt lat="48.27122" lon="6.75189">
        <ele>429.37</ele>
        <time>2017-01-07T08:53:29Z</time>
      </trkpt>
      <trkpt lat="48.27146" lon="6.75174">
        <ele>426.48</ele>
        <time>2017-01-07T08:53:45Z</time>
      </trkpt>
      <trkpt lat="48.27162" lon="6.75197">
        <ele>424.08</ele>
        <time>2017-01-07T08:54:00Z</time>
      </trkpt>
      <trkpt lat="48.27147" lon="6.75227">
        <ele>421.68</ele>
        <time>2017-01-07T08:54:15Z</time>
      </trkpt>
      <trkpt lat="48.27141" lon="6.75255">
        <ele>421.19</ele>
        <time>2017-01-07T08:54:27Z</time>
      </trkpt>
      <trkpt lat="48.27156" lon="6.75284">
        <ele>416.87</ele>
        <time>2017-01-07T08:54:42Z</time>
      </trkpt>
      <trkpt lat="48.27175" lon="6.75303">
        <ele>413.5</ele>
        <time>2017-01-07T08:54:58Z</time>
      </trkpt>
      <trkpt lat="48.272" lon="6.7532">
        <ele>415.91</ele>
        <time>2017-01-07T08:55:13Z</time>
      </trkpt>
      <trkpt lat="48.27223" lon="6.75341">
        <ele>411.1</ele>
        <time>2017-01-07T08:55:30Z</time>
      </trkpt>
      <trkpt lat="48.27228" lon="6.75351">
        <ele>410.14</ele>
        <time>2017-01-07T08:55:36Z</time>
      </trkpt>
      <trkpt lat="48.27232" lon="6.75359">
        <ele>409.18</ele>
        <time>2017-01-07T08:55:40Z</time>
      </trkpt>
      <trkpt lat="48.27236" lon="6.7537">
        <ele>408.22</ele>
        <time>2017-01-07T08:55:46Z</time>
      </trkpt>
      <trkpt lat="48.27241" lon="6.75376">
        <ele>407.74</ele>
        <time>2017-01-07T08:55:50Z</time>
      </trkpt>
      <trkpt lat="48.27259" lon="6.7536">
        <ele>399.57</ele>
        <time>2017-01-07T08:56:05Z</time>
      </trkpt>
      <trkpt lat="48.27275" lon="6.75338">
        <ele>397.64</ele>
        <time>2017-01-07T08:56:21Z</time>
      </trkpt>
      <trkpt lat="48.27299" lon="6.75344">
        <ele>401.49</ele>
        <time>2017-01-07T08:56:33Z</time>
      </trkpt>
      <trkpt lat="48.2732" lon="6.7537">
        <ele>400.53</ele>
        <time>2017-01-07T08:56:48Z</time>
      </trkpt>
      <trkpt lat="48.27334" lon="6.75404">
        <ele>399.57</ele>
        <time>2017-01-07T08:57:03Z</time>
      </trkpt>
      <trkpt lat="48.27347" lon="6.75437">
        <ele>399.08</ele>
        <time>2017-01-07T08:57:19Z</time>
      </trkpt>
      <trkpt lat="48.27354" lon="6.75468">
        <ele>397.16</ele>
        <time>2017-01-07T08:57:31Z</time>
      </trkpt>
      <trkpt lat="48.27364" lon="6.75504">
        <ele>394.76</ele>
        <time>2017-01-07T08:57:47Z</time>
      </trkpt>
      <trkpt lat="48.27375" lon="6.75535">
        <ele>392.36</ele>
        <time>2017-01-07T08:58:01Z</time>
      </trkpt>
      <trkpt lat="48.27391" lon="6.7557">
        <ele>386.59</ele>
        <time>2017-01-07T08:58:18Z</time>
      </trkpt>
      <trkpt lat="48.27409" lon="6.7556">
        <ele>383.7</ele>
        <time>2017-01-07T08:58:34Z</time>
      </trkpt>
      <trkpt lat="48.27415" lon="6.75549">
        <ele>380.82</ele>
        <time>2017-01-07T08:58:48Z</time>
      </trkpt>
      <trkpt lat="48.27425" lon="6.75534">
        <ele>380.82</ele>
        <time>2017-01-07T08:59:04Z</time>
      </trkpt>
      <trkpt lat="48.27432" lon="6.75522">
        <ele>379.38</ele>
        <time>2017-01-07T08:59:12Z</time>
      </trkpt>
      <trkpt lat="48.27441" lon="6.75517">
        <ele>380.82</ele>
        <time>2017-01-07T08:59:19Z</time>
      </trkpt>
      <trkpt lat="48.27455" lon="6.75523">
        <ele>384.66</ele>
        <time>2017-01-07T08:59:27Z</time>
      </trkpt>
      <trkpt lat="48.27457" lon="6.7553">
        <ele>386.11</ele>
        <time>2017-01-07T08:59:32Z</time>
      </trkpt>
      <trkpt lat="48.27463" lon="6.75552">
        <ele>388.03</ele>
        <time>2017-01-07T08:59:48Z</time>
      </trkpt>
      <trkpt lat="48.27466" lon="6.75563">
        <ele>388.99</ele>
        <time>2017-01-07T08:59:55Z</time>
      </trkpt>
      <trkpt lat="48.27468" lon="6.75572">
        <ele>389.95</ele>
        <time>2017-01-07T09:00:00Z</time>
      </trkpt>
      <trkpt lat="48.27474" lon="6.75599">
        <ele>389.47</ele>
        <time>2017-01-07T09:00:17Z</time>
      </trkpt>
      <trkpt lat="48.27475" lon="6.75607">
        <ele>389.47</ele>
        <time>2017-01-07T09:00:23Z</time>
      </trkpt>
      <trkpt lat="48.27479" lon="6.75637">
        <ele>389.47</ele>
        <time>2017-01-07T09:00:38Z</time>
      </trkpt>
      <trkpt lat="48.27481" lon="6.75662">
        <ele>391.39</ele>
        <time>2017-01-07T09:00:50Z</time>
      </trkpt>
      <trkpt lat="48.27484" lon="6.75693">
        <ele>394.28</ele>
        <time>2017-01-07T09:01:05Z</time>
      </trkpt>
      <trkpt lat="48.27489" lon="6.75727">
        <ele>396.2</ele>
        <time>2017-01-07T09:01:20Z</time>
      </trkpt>
      <trkpt lat="48.27494" lon="6.75758">
        <ele>394.28</ele>
        <time>2017-01-07T09:01:36Z</time>
      </trkpt>
      <trkpt lat="48.27504" lon="6.75785">
        <ele>392.84</ele>
        <time>2017-01-07T09:01:50Z</time>
      </trkpt>
      <trkpt lat="48.27513" lon="6.75805">
        <ele>391.39</ele>
        <time>2017-01-07T09:02:02Z</time>
      </trkpt>
      <trkpt lat="48.27515" lon="6.75807">
        <ele>390.91</ele>
        <time>2017-01-07T09:02:04Z</time>
      </trkpt>
      <trkpt lat="48.27519" lon="6.75837">
        <ele>391.87</ele>
        <time>2017-01-07T09:02:19Z</time>
      </trkpt>
      <trkpt lat="48.27518" lon="6.75868">
        <ele>390.91</ele>
        <time>2017-01-07T09:02:35Z</time>
      </trkpt>
      <trkpt lat="48.27523" lon="6.75901">
        <ele>392.36</ele>
        <time>2017-01-07T09:02:50Z</time>
      </trkpt>
      <trkpt lat="48.27528" lon="6.75909">
        <ele>392.36</ele>
        <time>2017-01-07T09:02:56Z</time>
      </trkpt>
      <trkpt lat="48.2753" lon="6.75916">
        <ele>391.87</ele>
        <time>2017-01-07T09:03:00Z</time>
      </trkpt>
      <trkpt lat="48.27545" lon="6.75939">
        <ele>389.95</ele>
        <time>2017-01-07T09:03:17Z</time>
      </trkpt>
      <trkpt lat="48.27559" lon="6.75958">
        <ele>388.99</ele>
        <time>2017-01-07T09:03:33Z</time>
      </trkpt>
      <trkpt lat="48.27571" lon="6.75982">
        <ele>390.91</ele>
        <time>2017-01-07T09:03:47Z</time>
      </trkpt>
      <trkpt lat="48.27573" lon="6.75987">
        <ele>391.39</ele>
        <time>2017-01-07T09:03:49Z</time>
      </trkpt>
      <trkpt lat="48.27576" lon="6.75996">
        <ele>392.36</ele>
        <time>2017-01-07T09:03:53Z</time>
      </trkpt>
      <trkpt lat="48.27585" lon="6.76026">
        <ele>394.28</ele>
        <time>2017-01-07T09:04:08Z</time>
      </trkpt>
      <trkpt lat="48.27592" lon="6.7604">
        <ele>394.28</ele>
        <time>2017-01-07T09:04:17Z</time>
      </trkpt>
      <trkpt lat="48.27604" lon="6.76069">
        <ele>392.84</ele>
        <time>2017-01-07T09:04:34Z</time>
      </trkpt>
      <trkpt lat="48.27613" lon="6.76094">
        <ele>393.8</ele>
        <time>2017-01-07T09:04:48Z</time>
      </trkpt>
      <trkpt lat="48.27618" lon="6.76111">
        <ele>395.72</ele>
        <time>2017-01-07T09:04:58Z</time>
      </trkpt>
      <trkpt lat="48.2762" lon="6.76119">
        <ele>396.68</ele>
        <time>2017-01-07T09:05:02Z</time>
      </trkpt>
      <trkpt lat="48.27628" lon="6.76159">
        <ele>401.01</ele>
        <time>2017-01-07T09:05:20Z</time>
      </trkpt>
      <trkpt lat="48.27633" lon="6.76191">
        <ele>402.93</ele>
        <time>2017-01-07T09:05:35Z</time>
      </trkpt>
      <trkpt lat="48.27636" lon="6.76209">
        <ele>403.89</ele>
        <time>2017-01-07T09:05:44Z</time>
      </trkpt>
      <trkpt lat="48.27639" lon="6.7622">
        <ele>403.89</ele>
        <time>2017-01-07T09:05:49Z</time>
      </trkpt>
      <trkpt lat="48.27646" lon="6.76252">
        <ele>405.81</ele>
        <time>2017-01-07T09:06:04Z</time>
      </trkpt>
      <trkpt lat="48.27651" lon="6.76281">
        <ele>407.26</ele>
        <time>2017-01-07T09:06:19Z</time>
      </trkpt>
      <trkpt lat="48.27656" lon="6.76312">
        <ele>408.22</ele>
        <time>2017-01-07T09:06:33Z</time>
      </trkpt>
      <trkpt lat="48.27662" lon="6.76342">
        <ele>409.18</ele>
        <time>2017-01-07T09:06:48Z</time>
      </trkpt>
      <trkpt lat="48.27664" lon="6.76373">
        <ele>409.66</ele>
        <time>2017-01-07T09:07:03Z</time>
      </trkpt>
      <trkpt lat="48.27668" lon="6.76405">
        <ele>408.7</ele>
        <time>2017-01-07T09:07:19Z</time>
      </trkpt>
      <trkpt lat="48.27673" lon="6.7643">
        <ele>407.26</ele>
        <time>2017-01-07T09:07:32Z</time>
      </trkpt>
      <trkpt lat="48.27677" lon="6.76459">
        <ele>407.74</ele>
        <time>2017-01-07T09:07:46Z</time>
      </trkpt>
      <trkpt lat="48.27685" lon="6.76482">
        <ele>407.26</ele>
        <time>2017-01-07T09:07:58Z</time>
      </trkpt>
      <trkpt lat="48.27697" lon="6.76511">
        <ele>406.29</ele>
        <time>2017-01-07T09:08:15Z</time>
      </trkpt>
      <trkpt lat="48.2771" lon="6.76534">
        <ele>406.77</ele>
        <time>2017-01-07T09:08:30Z</time>
      </trkpt>
      <trkpt lat="48.2771" lon="6.76536">
        <ele>406.29</ele>
        <time>2017-01-07T09:08:31Z</time>
      </trkpt>
      <trkpt lat="48.27725" lon="6.76558">
        <ele>404.85</ele>
        <time>2017-01-07T09:08:46Z</time>
      </trkpt>
      <trkpt lat="48.27728" lon="6.76562">
        <ele>403.89</ele>
        <time>2017-01-07T09:08:49Z</time>
      </trkpt>
      <trkpt lat="48.27733" lon="6.76568">
        <ele>403.89</ele>
        <time>2017-01-07T09:08:54Z</time>
      </trkpt>
      <trkpt lat="48.27748" lon="6.7659">
        <ele>402.93</ele>
        <time>2017-01-07T09:09:10Z</time>
      </trkpt>
      <trkpt lat="48.27759" lon="6.76618">
        <ele>403.41</ele>
        <time>2017-01-07T09:09:26Z</time>
      </trkpt>
      <trkpt lat="48.27767" lon="6.76643">
        <ele>403.41</ele>
        <time>2017-01-07T09:09:41Z</time>
      </trkpt>
      <trkpt lat="48.27774" lon="6.7667">
        <ele>404.37</ele>
        <time>2017-01-07T09:09:56Z</time>
      </trkpt>
      <trkpt lat="48.27782" lon="6.76695">
        <ele>406.77</ele>
        <time>2017-01-07T09:10:10Z</time>
      </trkpt>
      <trkpt lat="48.2779" lon="6.76715">
        <ele>405.33</ele>
        <time>2017-01-07T09:10:22Z</time>
      </trkpt>
      <trkpt lat="48.27796" lon="6.76728">
        <ele>403.89</ele>
        <time>2017-01-07T09:10:31Z</time>
      </trkpt>
      <trkpt lat="48.27802" lon="6.76745">
        <ele>405.81</ele>
        <time>2017-01-07T09:10:41Z</time>
      </trkpt>
      <trkpt lat="48.27803" lon="6.76754">
        <ele>407.74</ele>
        <time>2017-01-07T09:10:43Z</time>
      </trkpt>
      <trkpt lat="48.27804" lon="6.76762">
        <ele>408.7</ele>
        <time>2017-01-07T09:10:46Z</time>
      </trkpt>
      <trkpt lat="48.27805" lon="6.76774">
        <ele>409.18</ele>
        <time>2017-01-07T09:10:52Z</time>
      </trkpt>
      <trkpt lat="48.27813" lon="6.76801">
        <ele>406.29</ele>
        <time>2017-01-07T09:11:08Z</time>
      </trkpt>
      <trkpt lat="48.27822" lon="6.76819">
        <ele>401.97</ele>
        <time>2017-01-07T09:11:21Z</time>
      </trkpt>
      <trkpt lat="48.27824" lon="6.76828">
        <ele>402.45</ele>
        <time>2017-01-07T09:11:25Z</time>
      </trkpt>
      <trkpt lat="48.27827" lon="6.76835">
        <ele>404.37</ele>
        <time>2017-01-07T09:11:28Z</time>
      </trkpt>
      <trkpt lat="48.27836" lon="6.76854">
        <ele>406.77</ele>
        <time>2017-01-07T09:11:39Z</time>
      </trkpt>
      <trkpt lat="48.27843" lon="6.7688">
        <ele>407.74</ele>
        <time>2017-01-07T09:11:52Z</time>
      </trkpt>
      <trkpt lat="48.27852" lon="6.76903">
        <ele>408.22</ele>
        <time>2017-01-07T09:12:06Z</time>
      </trkpt>
      <trkpt lat="48.27862" lon="6.76923">
        <ele>408.22</ele>
        <time>2017-01-07T09:12:20Z</time>
      </trkpt>
      <trkpt lat="48.27863" lon="6.76926">
        <ele>408.22</ele>
        <time>2017-01-07T09:12:22Z</time>
      </trkpt>
      <trkpt lat="48.27867" lon="6.76942">
        <ele>409.66</ele>
        <time>2017-01-07T09:12:29Z</time>
      </trkpt>
      <trkpt lat="48.27875" lon="6.76955">
        <ele>410.14</ele>
        <time>2017-01-07T09:12:37Z</time>
      </trkpt>
      <trkpt lat="48.27885" lon="6.76969">
        <ele>407.26</ele>
        <time>2017-01-07T09:12:51Z</time>
      </trkpt>
      <trkpt lat="48.27898" lon="6.76988">
        <ele>408.22</ele>
        <time>2017-01-07T09:13:05Z</time>
      </trkpt>
      <trkpt lat="48.27904" lon="6.76998">
        <ele>409.66</ele>
        <time>2017-01-07T09:13:12Z</time>
      </trkpt>
      <trkpt lat="48.27909" lon="6.7701">
        <ele>413.5</ele>
        <time>2017-01-07T09:13:23Z</time>
      </trkpt>
      <trkpt lat="48.27915" lon="6.77017">
        <ele>413.98</ele>
        <time>2017-01-07T09:13:30Z</time>
      </trkpt>
      <trkpt lat="48.27922" lon="6.77029">
        <ele>414.47</ele>
        <time>2017-01-07T09:13:39Z</time>
      </trkpt>
      <trkpt lat="48.27934" lon="6.77051">
        <ele>415.43</ele>
        <time>2017-01-07T09:13:55Z</time>
      </trkpt>
      <trkpt lat="48.2794" lon="6.77061">
        <ele>414.47</ele>
        <time>2017-01-07T09:14:03Z</time>
      </trkpt>
      <trkpt lat="48.27951" lon="6.77084">
        <ele>415.91</ele>
        <time>2017-01-07T09:14:18Z</time>
      </trkpt>
      <trkpt lat="48.27959" lon="6.7711">
        <ele>415.43</ele>
        <time>2017-01-07T09:14:34Z</time>
      </trkpt>
      <trkpt lat="48.27966" lon="6.77126">
        <ele>413.02</ele>
        <time>2017-01-07T09:14:47Z</time>
      </trkpt>
      <trkpt lat="48.27975" lon="6.77139">
        <ele>408.22</ele>
        <time>2017-01-07T09:14:58Z</time>
      </trkpt>
      <trkpt lat="48.27981" lon="6.77155">
        <ele>404.37</ele>
        <time>2017-01-07T09:15:11Z</time>
      </trkpt>
      <trkpt lat="48.27984" lon="6.77157">
        <ele>403.89</ele>
        <time>2017-01-07T09:15:15Z</time>
      </trkpt>
      <trkpt lat="48.28001" lon="6.77166">
        <ele>403.41</ele>
        <time>2017-01-07T09:15:31Z</time>
      </trkpt>
      <trkpt lat="48.2803" lon="6.77179">
        <ele>417.35</ele>
        <time>2017-01-07T09:15:40Z</time>
      </trkpt>
      <trkpt lat="48.28033" lon="6.77203">
        <ele>420.23</ele>
        <time>2017-01-07T09:15:55Z</time>
      </trkpt>
      <trkpt lat="48.28027" lon="6.77218">
        <ele>419.75</ele>
        <time>2017-01-07T09:16:08Z</time>
      </trkpt>
      <trkpt lat="48.2802" lon="6.7724">
        <ele>418.31</ele>
        <time>2017-01-07T09:16:22Z</time>
      </trkpt>
      <trkpt lat="48.28013" lon="6.77264">
        <ele>415.91</ele>
        <time>2017-01-07T09:16:35Z</time>
      </trkpt>
      <trkpt lat="48.28005" lon="6.77292">
        <ele>416.87</ele>
        <time>2017-01-07T09:16:49Z</time>
      </trkpt>
      <trkpt lat="48.28" lon="6.7732">
        <ele>414.47</ele>
        <time>2017-01-07T09:17:04Z</time>
      </trkpt>
      <trkpt lat="48.27995" lon="6.7734">
        <ele>409.18</ele>
        <time>2017-01-07T09:17:17Z</time>
      </trkpt>
      <trkpt lat="48.27984" lon="6.77377">
        <ele>415.43</ele>
        <time>2017-01-07T09:17:32Z</time>
      </trkpt>
      <trkpt lat="48.27978" lon="6.77396">
        <ele>413.02</ele>
        <time>2017-01-07T09:17:46Z</time>
      </trkpt>
      <trkpt lat="48.27973" lon="6.77419">
        <ele>411.1</ele>
        <time>2017-01-07T09:18:01Z</time>
      </trkpt>
      <trkpt lat="48.27967" lon="6.77454">
        <ele>416.39</ele>
        <time>2017-01-07T09:18:20Z</time>
      </trkpt>
      <trkpt lat="48.27969" lon="6.77491">
        <ele>422.64</ele>
        <time>2017-01-07T09:18:37Z</time>
      </trkpt>
      <trkpt lat="48.27977" lon="6.77512">
        <ele>424.08</ele>
        <time>2017-01-07T09:18:51Z</time>
      </trkpt>
      <trkpt lat="48.27979" lon="6.77521">
        <ele>425.04</ele>
        <time>2017-01-07T09:18:55Z</time>
      </trkpt>
      <trkpt lat="48.27988" lon="6.77538">
        <ele>426</ele>
        <time>2017-01-07T09:19:09Z</time>
      </trkpt>
      <trkpt lat="48.2799" lon="6.77539">
        <ele>425.52</ele>
        <time>2017-01-07T09:19:11Z</time>
      </trkpt>
      <trkpt lat="48.28002" lon="6.77547">
        <ele>424.56</ele>
        <time>2017-01-07T09:19:24Z</time>
      </trkpt>
      <trkpt lat="48.28017" lon="6.77557">
        <ele>421.68</ele>
        <time>2017-01-07T09:19:39Z</time>
      </trkpt>
      <trkpt lat="48.28031" lon="6.77572">
        <ele>422.16</ele>
        <time>2017-01-07T09:19:55Z</time>
      </trkpt>
      <trkpt lat="48.28041" lon="6.7758">
        <ele>421.68</ele>
        <time>2017-01-07T09:20:06Z</time>
      </trkpt>
      <trkpt lat="48.28058" lon="6.77598">
        <ele>426</ele>
        <time>2017-01-07T09:20:21Z</time>
      </trkpt>
      <trkpt lat="48.28066" lon="6.77607">
        <ele>426.96</ele>
        <time>2017-01-07T09:20:27Z</time>
      </trkpt>
      <trkpt lat="48.28073" lon="6.77613">
        <ele>427.44</ele>
        <time>2017-01-07T09:20:34Z</time>
      </trkpt>
      <trkpt lat="48.28087" lon="6.77623">
        <ele>427.92</ele>
        <time>2017-01-07T09:20:48Z</time>
      </trkpt>
      <trkpt lat="48.28102" lon="6.77635">
        <ele>430.81</ele>
        <time>2017-01-07T09:21:00Z</time>
      </trkpt>
      <trkpt lat="48.28114" lon="6.77646">
        <ele>429.85</ele>
        <time>2017-01-07T09:21:12Z</time>
      </trkpt>
      <trkpt lat="48.28129" lon="6.77665">
        <ele>426</ele>
        <time>2017-01-07T09:21:29Z</time>
      </trkpt>
      <trkpt lat="48.2814" lon="6.77679">
        <ele>425.04</ele>
        <time>2017-01-07T09:21:43Z</time>
      </trkpt>
      <trkpt lat="48.28155" lon="6.77699">
        <ele>424.08</ele>
        <time>2017-01-07T09:21:58Z</time>
      </trkpt>
      <trkpt lat="48.28168" lon="6.7772">
        <ele>425.52</ele>
        <time>2017-01-07T09:22:13Z</time>
      </trkpt>
      <trkpt lat="48.28182" lon="6.77736">
        <ele>425.52</ele>
        <time>2017-01-07T09:22:27Z</time>
      </trkpt>
      <trkpt lat="48.28195" lon="6.77752">
        <ele>425.52</ele>
        <time>2017-01-07T09:22:40Z</time>
      </trkpt>
      <trkpt lat="48.28206" lon="6.77768">
        <ele>423.12</ele>
        <time>2017-01-07T09:22:54Z</time>
      </trkpt>
      <trkpt lat="48.28216" lon="6.77784">
        <ele>424.56</ele>
        <time>2017-01-07T09:23:06Z</time>
      </trkpt>
      <trkpt lat="48.28227" lon="6.77797">
        <ele>425.52</ele>
        <time>2017-01-07T09:23:17Z</time>
      </trkpt>
      <trkpt lat="48.28238" lon="6.77812">
        <ele>426.48</ele>
        <time>2017-01-07T09:23:29Z</time>
      </trkpt>
      <trkpt lat="48.28247" lon="6.77824">
        <ele>426.48</ele>
        <time>2017-01-07T09:23:38Z</time>
      </trkpt>
      <trkpt lat="48.28253" lon="6.77836">
        <ele>426</ele>
        <time>2017-01-07T09:23:46Z</time>
      </trkpt>
      <trkpt lat="48.28263" lon="6.7785">
        <ele>429.37</ele>
        <time>2017-01-07T09:24:00Z</time>
      </trkpt>
      <trkpt lat="48.28268" lon="6.77858">
        <ele>426.96</ele>
        <time>2017-01-07T09:24:12Z</time>
      </trkpt>
      <trkpt lat="48.28279" lon="6.77857">
        <ele>423.6</ele>
        <time>2017-01-07T09:24:26Z</time>
      </trkpt>
      <trkpt lat="48.28294" lon="6.77857">
        <ele>420.71</ele>
        <time>2017-01-07T09:24:41Z</time>
      </trkpt>
      <trkpt lat="48.28316" lon="6.77862">
        <ele>420.71</ele>
        <time>2017-01-07T09:24:58Z</time>
      </trkpt>
      <trkpt lat="48.28332" lon="6.7787">
        <ele>423.12</ele>
        <time>2017-01-07T09:25:12Z</time>
      </trkpt>
      <trkpt lat="48.28351" lon="6.77877">
        <ele>426.48</ele>
        <time>2017-01-07T09:25:27Z</time>
      </trkpt>
      <trkpt lat="48.28362" lon="6.77879">
        <ele>427.44</ele>
        <time>2017-01-07T09:25:34Z</time>
      </trkpt>
      <trkpt lat="48.28382" lon="6.77886">
        <ele>429.85</ele>
        <time>2017-01-07T09:25:50Z</time>
      </trkpt>
      <trkpt lat="48.28385" lon="6.77889">
        <ele>430.33</ele>
        <time>2017-01-07T09:25:52Z</time>
      </trkpt>
      <trkpt lat="48.284" lon="6.77902">
        <ele>433.69</ele>
        <time>2017-01-07T09:26:06Z</time>
      </trkpt>
      <trkpt lat="48.2841" lon="6.77913">
        <ele>434.65</ele>
        <time>2017-01-07T09:26:19Z</time>
      </trkpt>
      <trkpt lat="48.28424" lon="6.77922">
        <ele>440.9</ele>
        <time>2017-01-07T09:26:35Z</time>
      </trkpt>
      <trkpt lat="48.28442" lon="6.7793">
        <ele>454.84</ele>
        <time>2017-01-07T09:26:50Z</time>
      </trkpt>
      <trkpt lat="48.28454" lon="6.77931">
        <ele>451.96</ele>
        <time>2017-01-07T09:27:07Z</time>
      </trkpt>
      <trkpt lat="48.28462" lon="6.77935">
        <ele>451.48</ele>
        <time>2017-01-07T09:27:23Z</time>
      </trkpt>
      <trkpt lat="48.28475" lon="6.77941">
        <ele>453.4</ele>
        <time>2017-01-07T09:27:38Z</time>
      </trkpt>
      <trkpt lat="48.28489" lon="6.77946">
        <ele>451</ele>
        <time>2017-01-07T09:27:53Z</time>
      </trkpt>
      <trkpt lat="48.28508" lon="6.77949">
        <ele>451.48</ele>
        <time>2017-01-07T09:28:09Z</time>
      </trkpt>
      <trkpt lat="48.28522" lon="6.77952">
        <ele>451.48</ele>
        <time>2017-01-07T09:28:22Z</time>
      </trkpt>
      <trkpt lat="48.28535" lon="6.77958">
        <ele>454.36</ele>
        <time>2017-01-07T09:28:34Z</time>
      </trkpt>
      <trkpt lat="48.28549" lon="6.77963">
        <ele>452.92</ele>
        <time>2017-01-07T09:28:50Z</time>
      </trkpt>
      <trkpt lat="48.28561" lon="6.77968">
        <ele>458.21</ele>
        <time>2017-01-07T09:29:01Z</time>
      </trkpt>
      <trkpt lat="48.28582" lon="6.77976">
        <ele>473.59</ele>
        <time>2017-01-07T09:29:17Z</time>
      </trkpt>
      <trkpt lat="48.28582" lon="6.77974">
        <ele>473.11</ele>
        <time>2017-01-07T09:29:27Z</time>
      </trkpt>
      <trkpt lat="48.28589" lon="6.77967">
        <ele>472.63</ele>
        <time>2017-01-07T09:29:41Z</time>
      </trkpt>
      <trkpt lat="48.28598" lon="6.77962">
        <ele>472.14</ele>
        <time>2017-01-07T09:29:56Z</time>
      </trkpt>
      <trkpt lat="48.28598" lon="6.77946">
        <ele>469.26</ele>
        <time>2017-01-07T09:30:09Z</time>
      </trkpt>
      <trkpt lat="48.28595" lon="6.77939">
        <ele>467.82</ele>
        <time>2017-01-07T09:30:15Z</time>
      </trkpt>
      <trkpt lat="48.28585" lon="6.7793">
        <ele>465.42</ele>
        <time>2017-01-07T09:30:30Z</time>
      </trkpt>
      <trkpt lat="48.28572" lon="6.77924">
        <ele>465.42</ele>
        <time>2017-01-07T09:30:43Z</time>
      </trkpt>
      <trkpt lat="48.28545" lon="6.77913">
        <ele>468.78</ele>
        <time>2017-01-07T09:31:01Z</time>
      </trkpt>
      <trkpt lat="48.28522" lon="6.77901">
        <ele>467.82</ele>
        <time>2017-01-07T09:31:17Z</time>
      </trkpt>
      <trkpt lat="48.28503" lon="6.77886">
        <ele>469.74</ele>
        <time>2017-01-07T09:31:33Z</time>
      </trkpt>
      <trkpt lat="48.28488" lon="6.7787">
        <ele>467.82</ele>
        <time>2017-01-07T09:31:48Z</time>
      </trkpt>
      <trkpt lat="48.28474" lon="6.77851">
        <ele>472.63</ele>
        <time>2017-01-07T09:32:04Z</time>
      </trkpt>
      <trkpt lat="48.28465" lon="6.77836">
        <ele>471.66</ele>
        <time>2017-01-07T09:32:17Z</time>
      </trkpt>
      <trkpt lat="48.2846" lon="6.77827">
        <ele>471.18</ele>
        <time>2017-01-07T09:32:24Z</time>
      </trkpt>
      <trkpt lat="48.2845" lon="6.77808">
        <ele>467.82</ele>
        <time>2017-01-07T09:32:39Z</time>
      </trkpt>
      <trkpt lat="48.28439" lon="6.77787">
        <ele>470.22</ele>
        <time>2017-01-07T09:32:53Z</time>
      </trkpt>
      <trkpt lat="48.2843" lon="6.77774">
        <ele>469.74</ele>
        <time>2017-01-07T09:33:06Z</time>
      </trkpt>
      <trkpt lat="48.28418" lon="6.77753">
        <ele>469.74</ele>
        <time>2017-01-07T09:33:22Z</time>
      </trkpt>
      <trkpt lat="48.28416" lon="6.77744">
        <ele>471.66</ele>
        <time>2017-01-07T09:33:27Z</time>
      </trkpt>
      <trkpt lat="48.28411" lon="6.77718">
        <ele>473.11</ele>
        <time>2017-01-07T09:33:43Z</time>
      </trkpt>
      <trkpt lat="48.28414" lon="6.77702">
        <ele>475.03</ele>
        <time>2017-01-07T09:33:55Z</time>
      </trkpt>
      <trkpt lat="48.28421" lon="6.77684">
        <ele>477.43</ele>
        <time>2017-01-07T09:34:10Z</time>
      </trkpt>
      <trkpt lat="48.28432" lon="6.77669">
        <ele>472.63</ele>
        <time>2017-01-07T09:34:25Z</time>
      </trkpt>
      <trkpt lat="48.28433" lon="6.77668">
        <ele>472.14</ele>
        <time>2017-01-07T09:34:26Z</time>
      </trkpt>
      <trkpt lat="48.28445" lon="6.77655">
        <ele>468.78</ele>
        <time>2017-01-07T09:34:41Z</time>
      </trkpt>
      <trkpt lat="48.28455" lon="6.77646">
        <ele>463.01</ele>
        <time>2017-01-07T09:34:55Z</time>
      </trkpt>
      <trkpt lat="48.28469" lon="6.77635">
        <ele>462.05</ele>
        <time>2017-01-07T09:35:11Z</time>
      </trkpt>
      <trkpt lat="48.28478" lon="6.77624">
        <ele>462.05</ele>
        <time>2017-01-07T09:35:24Z</time>
      </trkpt>
      <trkpt lat="48.28495" lon="6.77605">
        <ele>463.01</ele>
        <time>2017-01-07T09:35:39Z</time>
      </trkpt>
      <trkpt lat="48.28511" lon="6.77588">
        <ele>466.38</ele>
        <time>2017-01-07T09:35:55Z</time>
      </trkpt>
      <trkpt lat="48.28524" lon="6.77576">
        <ele>475.99</ele>
        <time>2017-01-07T09:36:09Z</time>
      </trkpt>
      <trkpt lat="48.28537" lon="6.7757">
        <ele>479.35</ele>
        <time>2017-01-07T09:36:22Z</time>
      </trkpt>
      <trkpt lat="48.28546" lon="6.77569">
        <ele>476.47</ele>
        <time>2017-01-07T09:36:35Z</time>
      </trkpt>
      <trkpt lat="48.28551" lon="6.77569">
        <ele>475.51</ele>
        <time>2017-01-07T09:36:39Z</time>
      </trkpt>
      <trkpt lat="48.28566" lon="6.77572">
        <ele>477.43</ele>
        <time>2017-01-07T09:36:52Z</time>
      </trkpt>
      <trkpt lat="48.28585" lon="6.77577">
        <ele>479.35</ele>
        <time>2017-01-07T09:37:07Z</time>
      </trkpt>
      <trkpt lat="48.28602" lon="6.77583">
        <ele>482.24</ele>
        <time>2017-01-07T09:37:22Z</time>
      </trkpt>
      <trkpt lat="48.28624" lon="6.77587">
        <ele>490.89</ele>
        <time>2017-01-07T09:37:39Z</time>
      </trkpt>
      <trkpt lat="48.28641" lon="6.77597">
        <ele>493.77</ele>
        <time>2017-01-07T09:37:54Z</time>
      </trkpt>
      <trkpt lat="48.28657" lon="6.77607">
        <ele>495.7</ele>
        <time>2017-01-07T09:38:10Z</time>
      </trkpt>
      <trkpt lat="48.28672" lon="6.77613">
        <ele>496.66</ele>
        <time>2017-01-07T09:38:26Z</time>
      </trkpt>
      <trkpt lat="48.28681" lon="6.77601">
        <ele>496.18</ele>
        <time>2017-01-07T09:38:39Z</time>
      </trkpt>
      <trkpt lat="48.2868" lon="6.77566">
        <ele>491.85</ele>
        <time>2017-01-07T09:38:58Z</time>
      </trkpt>
      <trkpt lat="48.28681" lon="6.7754">
        <ele>491.37</ele>
        <time>2017-01-07T09:39:11Z</time>
      </trkpt>
      <trkpt lat="48.28681" lon="6.77533">
        <ele>492.81</ele>
        <time>2017-01-07T09:39:14Z</time>
      </trkpt>
      <trkpt lat="48.28683" lon="6.77524">
        <ele>496.18</ele>
        <time>2017-01-07T09:39:18Z</time>
      </trkpt>
      <trkpt lat="48.28686" lon="6.77518">
        <ele>499.54</ele>
        <time>2017-01-07T09:39:21Z</time>
      </trkpt>
      <trkpt lat="48.28702" lon="6.77512">
        <ele>507.23</ele>
        <time>2017-01-07T09:39:36Z</time>
      </trkpt>
      <trkpt lat="48.28723" lon="6.77515">
        <ele>509.64</ele>
        <time>2017-01-07T09:39:52Z</time>
      </trkpt>
      <trkpt lat="48.28745" lon="6.77511">
        <ele>511.08</ele>
        <time>2017-01-07T09:40:09Z</time>
      </trkpt>
      <trkpt lat="48.28765" lon="6.77506">
        <ele>509.64</ele>
        <time>2017-01-07T09:40:24Z</time>
      </trkpt>
      <trkpt lat="48.28785" lon="6.77508">
        <ele>505.79</ele>
        <time>2017-01-07T09:40:40Z</time>
      </trkpt>
      <trkpt lat="48.28795" lon="6.77512">
        <ele>505.31</ele>
        <time>2017-01-07T09:40:49Z</time>
      </trkpt>
      <trkpt lat="48.28807" lon="6.7752">
        <ele>504.35</ele>
        <time>2017-01-07T09:41:08Z</time>
      </trkpt>
      <trkpt lat="48.28812" lon="6.77521">
        <ele>503.39</ele>
        <time>2017-01-07T09:41:33Z</time>
      </trkpt>
      <trkpt lat="48.28838" lon="6.77528">
        <ele>502.91</ele>
        <time>2017-01-07T09:41:53Z</time>
      </trkpt>
      <trkpt lat="48.28851" lon="6.77529">
        <ele>502.91</ele>
        <time>2017-01-07T09:42:03Z</time>
      </trkpt>
      <trkpt lat="48.28873" lon="6.77525">
        <ele>503.87</ele>
        <time>2017-01-07T09:42:19Z</time>
      </trkpt>
      <trkpt lat="48.28892" lon="6.77521">
        <ele>502.91</ele>
        <time>2017-01-07T09:42:35Z</time>
      </trkpt>
      <trkpt lat="48.28912" lon="6.77518">
        <ele>501.46</ele>
        <time>2017-01-07T09:42:51Z</time>
      </trkpt>
      <trkpt lat="48.28933" lon="6.77514">
        <ele>502.91</ele>
        <time>2017-01-07T09:43:07Z</time>
      </trkpt>
      <trkpt lat="48.28947" lon="6.77513">
        <ele>503.39</ele>
        <time>2017-01-07T09:43:17Z</time>
      </trkpt>
      <trkpt lat="48.28963" lon="6.77517">
        <ele>501.95</ele>
        <time>2017-01-07T09:43:30Z</time>
      </trkpt>
      <trkpt lat="48.28983" lon="6.77534">
        <ele>496.18</ele>
        <time>2017-01-07T09:43:48Z</time>
      </trkpt>
      <trkpt lat="48.2901" lon="6.7756">
        <ele>491.85</ele>
        <time>2017-01-07T09:44:11Z</time>
      </trkpt>
      <trkpt lat="48.29023" lon="6.77586">
        <ele>486.08</ele>
        <time>2017-01-07T09:44:32Z</time>
      </trkpt>
      <trkpt lat="48.29045" lon="6.77621">
        <ele>486.08</ele>
        <time>2017-01-07T09:44:52Z</time>
      </trkpt>
      <trkpt lat="48.29057" lon="6.77663">
        <ele>489.93</ele>
        <time>2017-01-07T09:45:13Z</time>
      </trkpt>
      <trkpt lat="48.29058" lon="6.77708">
        <ele>482.72</ele>
        <time>2017-01-07T09:45:36Z</time>
      </trkpt>
      <trkpt lat="48.29074" lon="6.77734">
        <ele>478.39</ele>
        <time>2017-01-07T09:45:56Z</time>
      </trkpt>
      <trkpt lat="48.29101" lon="6.77748">
        <ele>471.18</ele>
        <time>2017-01-07T09:46:15Z</time>
      </trkpt>
      <trkpt lat="48.29132" lon="6.77769">
        <ele>470.22</ele>
        <time>2017-01-07T09:46:35Z</time>
      </trkpt>
      <trkpt lat="48.29154" lon="6.77788">
        <ele>480.8</ele>
        <time>2017-01-07T09:46:53Z</time>
      </trkpt>
      <trkpt lat="48.29178" lon="6.77811">
        <ele>478.87</ele>
        <time>2017-01-07T09:47:15Z</time>
      </trkpt>
      <trkpt lat="48.292" lon="6.77834">
        <ele>479.35</ele>
        <time>2017-01-07T09:47:33Z</time>
      </trkpt>
      <trkpt lat="48.29221" lon="6.77854">
        <ele>477.91</ele>
        <time>2017-01-07T09:47:53Z</time>
      </trkpt>
      <trkpt lat="48.29245" lon="6.77872">
        <ele>476.47</ele>
        <time>2017-01-07T09:48:13Z</time>
      </trkpt>
      <trkpt lat="48.29264" lon="6.77897">
        <ele>476.95</ele>
        <time>2017-01-07T09:48:30Z</time>
      </trkpt>
      <trkpt lat="48.29268" lon="6.77902">
        <ele>478.87</ele>
        <time>2017-01-07T09:48:33Z</time>
      </trkpt>
      <trkpt lat="48.29292" lon="6.77926">
        <ele>479.35</ele>
        <time>2017-01-07T09:48:53Z</time>
      </trkpt>
      <trkpt lat="48.2931" lon="6.77957">
        <ele>480.32</ele>
        <time>2017-01-07T09:49:11Z</time>
      </trkpt>
      <trkpt lat="48.29326" lon="6.77984">
        <ele>480.8</ele>
        <time>2017-01-07T09:49:30Z</time>
      </trkpt>
      <trkpt lat="48.29349" lon="6.78007">
        <ele>479.35</ele>
        <time>2017-01-07T09:49:52Z</time>
      </trkpt>
      <trkpt lat="48.29358" lon="6.78006">
        <ele>480.32</ele>
        <time>2017-01-07T09:49:58Z</time>
      </trkpt>
      <trkpt lat="48.29392" lon="6.77999">
        <ele>484.16</ele>
        <time>2017-01-07T09:50:19Z</time>
      </trkpt>
      <trkpt lat="48.29412" lon="6.77995">
        <ele>479.84</ele>
        <time>2017-01-07T09:50:37Z</time>
      </trkpt>
      <trkpt lat="48.29442" lon="6.77996">
        <ele>482.24</ele>
        <time>2017-01-07T09:50:55Z</time>
      </trkpt>
      <trkpt lat="48.29466" lon="6.7799">
        <ele>482.72</ele>
        <time>2017-01-07T09:51:13Z</time>
      </trkpt>
      <trkpt lat="48.29491" lon="6.7798">
        <ele>482.24</ele>
        <time>2017-01-07T09:51:32Z</time>
      </trkpt>
      <trkpt lat="48.29512" lon="6.77967">
        <ele>484.64</ele>
        <time>2017-01-07T09:51:49Z</time>
      </trkpt>
      <trkpt lat="48.29525" lon="6.77949">
        <ele>482.72</ele>
        <time>2017-01-07T09:52:06Z</time>
      </trkpt>
      <trkpt lat="48.29543" lon="6.7793">
        <ele>481.76</ele>
        <time>2017-01-07T09:52:27Z</time>
      </trkpt>
      <trkpt lat="48.29556" lon="6.77913">
        <ele>478.39</ele>
        <time>2017-01-07T09:52:44Z</time>
      </trkpt>
      <trkpt lat="48.29562" lon="6.77903">
        <ele>478.87</ele>
        <time>2017-01-07T09:53:05Z</time>
      </trkpt>
      <trkpt lat="48.2958" lon="6.77886">
        <ele>481.76</ele>
        <time>2017-01-07T09:53:23Z</time>
      </trkpt>
      <trkpt lat="48.29592" lon="6.77865">
        <ele>482.24</ele>
        <time>2017-01-07T09:53:41Z</time>
      </trkpt>
      <trkpt lat="48.296" lon="6.77844">
        <ele>479.84</ele>
        <time>2017-01-07T09:53:58Z</time>
      </trkpt>
      <trkpt lat="48.2961" lon="6.77829">
        <ele>479.35</ele>
        <time>2017-01-07T09:54:12Z</time>
      </trkpt>
      <trkpt lat="48.29628" lon="6.77814">
        <ele>481.28</ele>
        <time>2017-01-07T09:54:31Z</time>
      </trkpt>
      <trkpt lat="48.29629" lon="6.77813">
        <ele>481.28</ele>
        <time>2017-01-07T09:54:32Z</time>
      </trkpt>
      <trkpt lat="48.29652" lon="6.77806">
        <ele>484.64</ele>
        <time>2017-01-07T09:54:51Z</time>
      </trkpt>
      <trkpt lat="48.29669" lon="6.77797">
        <ele>486.08</ele>
        <time>2017-01-07T09:55:08Z</time>
      </trkpt>
      <trkpt lat="48.29689" lon="6.77776">
        <ele>486.56</ele>
        <time>2017-01-07T09:55:29Z</time>
      </trkpt>
      <trkpt lat="48.29702" lon="6.77753">
        <ele>485.12</ele>
        <time>2017-01-07T09:55:46Z</time>
      </trkpt>
      <trkpt lat="48.29714" lon="6.77727">
        <ele>486.08</ele>
        <time>2017-01-07T09:56:03Z</time>
      </trkpt>
      <trkpt lat="48.29735" lon="6.77703">
        <ele>485.12</ele>
        <time>2017-01-07T09:56:22Z</time>
      </trkpt>
      <trkpt lat="48.29758" lon="6.77689">
        <ele>484.16</ele>
        <time>2017-01-07T09:56:41Z</time>
      </trkpt>
      <trkpt lat="48.29782" lon="6.77692">
        <ele>480.8</ele>
        <time>2017-01-07T09:57:01Z</time>
      </trkpt>
      <trkpt lat="48.29791" lon="6.77696">
        <ele>479.35</ele>
        <time>2017-01-07T09:57:08Z</time>
      </trkpt>
      <trkpt lat="48.29815" lon="6.77697">
        <ele>477.43</ele>
        <time>2017-01-07T09:57:29Z</time>
      </trkpt>
      <trkpt lat="48.29845" lon="6.77689">
        <ele>475.51</ele>
        <time>2017-01-07T09:57:51Z</time>
      </trkpt>
      <trkpt lat="48.29848" lon="6.7769">
        <ele>475.51</ele>
        <time>2017-01-07T09:57:53Z</time>
      </trkpt>
      <trkpt lat="48.29874" lon="6.77681">
        <ele>475.03</ele>
        <time>2017-01-07T09:58:12Z</time>
      </trkpt>
      <trkpt lat="48.29897" lon="6.77681">
        <ele>475.51</ele>
        <time>2017-01-07T09:58:31Z</time>
      </trkpt>
      <trkpt lat="48.29923" lon="6.77687">
        <ele>475.99</ele>
        <time>2017-01-07T09:58:52Z</time>
      </trkpt>
      <trkpt lat="48.29946" lon="6.77692">
        <ele>478.39</ele>
        <time>2017-01-07T09:59:09Z</time>
      </trkpt>
      <trkpt lat="48.29969" lon="6.77692">
        <ele>479.35</ele>
        <time>2017-01-07T09:59:28Z</time>
      </trkpt>
      <trkpt lat="48.29973" lon="6.77692">
        <ele>479.35</ele>
        <time>2017-01-07T09:59:46Z</time>
      </trkpt>
      <trkpt lat="48.29979" lon="6.7769">
        <ele>478.39</ele>
        <time>2017-01-07T10:00:10Z</time>
      </trkpt>
      <trkpt lat="48.3" lon="6.77684">
        <ele>476.95</ele>
        <time>2017-01-07T10:00:30Z</time>
      </trkpt>
      <trkpt lat="48.30018" lon="6.77674">
        <ele>489.93</ele>
        <time>2017-01-07T10:00:50Z</time>
      </trkpt>
      <trkpt lat="48.30029" lon="6.77674">
        <ele>495.7</ele>
        <time>2017-01-07T10:01:05Z</time>
      </trkpt>
      <trkpt lat="48.30044" lon="6.77677">
        <ele>497.62</ele>
        <time>2017-01-07T10:01:21Z</time>
      </trkpt>
      <trkpt lat="48.30055" lon="6.7768">
        <ele>497.62</ele>
        <time>2017-01-07T10:01:32Z</time>
      </trkpt>
      <trkpt lat="48.30073" lon="6.77669">
        <ele>498.1</ele>
        <time>2017-01-07T10:01:50Z</time>
      </trkpt>
      <trkpt lat="48.30076" lon="6.77666">
        <ele>498.1</ele>
        <time>2017-01-07T10:01:53Z</time>
      </trkpt>
      <trkpt lat="48.30087" lon="6.77647">
        <ele>499.06</ele>
        <time>2017-01-07T10:02:08Z</time>
      </trkpt>
      <trkpt lat="48.30101" lon="6.7763">
        <ele>500.5</ele>
        <time>2017-01-07T10:02:25Z</time>
      </trkpt>
      <trkpt lat="48.30117" lon="6.77614">
        <ele>508.19</ele>
        <time>2017-01-07T10:02:45Z</time>
      </trkpt>
      <trkpt lat="48.30122" lon="6.77601">
        <ele>504.83</ele>
        <time>2017-01-07T10:03:00Z</time>
      </trkpt>
      <trkpt lat="48.30126" lon="6.77581">
        <ele>503.87</ele>
        <time>2017-01-07T10:03:16Z</time>
      </trkpt>
      <trkpt lat="48.30131" lon="6.77561">
        <ele>506.75</ele>
        <time>2017-01-07T10:03:31Z</time>
      </trkpt>
      <trkpt lat="48.30135" lon="6.77537">
        <ele>507.23</ele>
        <time>2017-01-07T10:03:48Z</time>
      </trkpt>
      <trkpt lat="48.3014" lon="6.7751">
        <ele>505.79</ele>
        <time>2017-01-07T10:04:07Z</time>
      </trkpt>
      <trkpt lat="48.30146" lon="6.77487">
        <ele>508.19</ele>
        <time>2017-01-07T10:04:22Z</time>
      </trkpt>
      <trkpt lat="48.30148" lon="6.77476">
        <ele>509.64</ele>
        <time>2017-01-07T10:04:29Z</time>
      </trkpt>
      <trkpt lat="48.30155" lon="6.77446">
        <ele>513</ele>
        <time>2017-01-07T10:04:46Z</time>
      </trkpt>
      <trkpt lat="48.3016" lon="6.7742">
        <ele>511.56</ele>
        <time>2017-01-07T10:05:02Z</time>
      </trkpt>
      <trkpt lat="48.30162" lon="6.77398">
        <ele>510.12</ele>
        <time>2017-01-07T10:05:17Z</time>
      </trkpt>
      <trkpt lat="48.30166" lon="6.77369">
        <ele>510.6</ele>
        <time>2017-01-07T10:05:32Z</time>
      </trkpt>
      <trkpt lat="48.3017" lon="6.77343">
        <ele>512.04</ele>
        <time>2017-01-07T10:05:50Z</time>
      </trkpt>
      <trkpt lat="48.30174" lon="6.77327">
        <ele>515.4</ele>
        <time>2017-01-07T10:06:00Z</time>
      </trkpt>
      <trkpt lat="48.30187" lon="6.77304">
        <ele>518.29</ele>
        <time>2017-01-07T10:06:17Z</time>
      </trkpt>
      <trkpt lat="48.30204" lon="6.77285">
        <ele>518.77</ele>
        <time>2017-01-07T10:06:36Z</time>
      </trkpt>
      <trkpt lat="48.3022" lon="6.77278">
        <ele>519.73</ele>
        <time>2017-01-07T10:06:54Z</time>
      </trkpt>
      <trkpt lat="48.30238" lon="6.7728">
        <ele>517.33</ele>
        <time>2017-01-07T10:07:07Z</time>
      </trkpt>
      <trkpt lat="48.30263" lon="6.77294">
        <ele>516.37</ele>
        <time>2017-01-07T10:07:25Z</time>
      </trkpt>
      <trkpt lat="48.30279" lon="6.77304">
        <ele>513</ele>
        <time>2017-01-07T10:07:41Z</time>
      </trkpt>
      <trkpt lat="48.30293" lon="6.77323">
        <ele>510.12</ele>
        <time>2017-01-07T10:07:58Z</time>
      </trkpt>
      <trkpt lat="48.30305" lon="6.77353">
        <ele>512.04</ele>
        <time>2017-01-07T10:08:15Z</time>
      </trkpt>
      <trkpt lat="48.30324" lon="6.77372">
        <ele>509.64</ele>
        <time>2017-01-07T10:08:34Z</time>
      </trkpt>
      <trkpt lat="48.30338" lon="6.77388">
        <ele>505.79</ele>
        <time>2017-01-07T10:08:51Z</time>
      </trkpt>
      <trkpt lat="48.30345" lon="6.77394">
        <ele>505.31</ele>
        <time>2017-01-07T10:08:57Z</time>
      </trkpt>
      <trkpt lat="48.30367" lon="6.77404">
        <ele>504.83</ele>
        <time>2017-01-07T10:09:14Z</time>
      </trkpt>
      <trkpt lat="48.3039" lon="6.774">
        <ele>502.91</ele>
        <time>2017-01-07T10:09:33Z</time>
      </trkpt>
      <trkpt lat="48.3041" lon="6.77392">
        <ele>506.27</ele>
        <time>2017-01-07T10:09:48Z</time>
      </trkpt>
      <trkpt lat="48.3043" lon="6.77384">
        <ele>506.27</ele>
        <time>2017-01-07T10:10:05Z</time>
      </trkpt>
      <trkpt lat="48.30451" lon="6.77373">
        <ele>506.75</ele>
        <time>2017-01-07T10:10:23Z</time>
      </trkpt>
      <trkpt lat="48.30475" lon="6.77366">
        <ele>507.71</ele>
        <time>2017-01-07T10:10:43Z</time>
      </trkpt>
      <trkpt lat="48.30495" lon="6.77369">
        <ele>506.75</ele>
        <time>2017-01-07T10:11:00Z</time>
      </trkpt>
      <trkpt lat="48.30516" lon="6.7739">
        <ele>510.12</ele>
        <time>2017-01-07T10:11:19Z</time>
      </trkpt>
      <trkpt lat="48.30521" lon="6.774">
        <ele>511.56</ele>
        <time>2017-01-07T10:11:26Z</time>
      </trkpt>
      <trkpt lat="48.30526" lon="6.77405">
        <ele>513.48</ele>
        <time>2017-01-07T10:11:30Z</time>
      </trkpt>
      <trkpt lat="48.30531" lon="6.7741">
        <ele>513.96</ele>
        <time>2017-01-07T10:11:35Z</time>
      </trkpt>
      <trkpt lat="48.30549" lon="6.77431">
        <ele>514.44</ele>
        <time>2017-01-07T10:11:53Z</time>
      </trkpt>
      <trkpt lat="48.3056" lon="6.77445">
        <ele>515.4</ele>
        <time>2017-01-07T10:12:05Z</time>
      </trkpt>
      <trkpt lat="48.30576" lon="6.77465">
        <ele>515.4</ele>
        <time>2017-01-07T10:12:23Z</time>
      </trkpt>
      <trkpt lat="48.30598" lon="6.7749">
        <ele>514.44</ele>
        <time>2017-01-07T10:12:43Z</time>
      </trkpt>
      <trkpt lat="48.30615" lon="6.77506">
        <ele>512.04</ele>
        <time>2017-01-07T10:13:00Z</time>
      </trkpt>
      <trkpt lat="48.30632" lon="6.77526">
        <ele>510.6</ele>
        <time>2017-01-07T10:13:18Z</time>
      </trkpt>
      <trkpt lat="48.3065" lon="6.77545">
        <ele>510.6</ele>
        <time>2017-01-07T10:13:35Z</time>
      </trkpt>
      <trkpt lat="48.30667" lon="6.77566">
        <ele>506.27</ele>
        <time>2017-01-07T10:13:52Z</time>
      </trkpt>
      <trkpt lat="48.3068" lon="6.7758">
        <ele>506.27</ele>
        <time>2017-01-07T10:14:07Z</time>
      </trkpt>
      <trkpt lat="48.307" lon="6.77602">
        <ele>506.27</ele>
        <time>2017-01-07T10:14:25Z</time>
      </trkpt>
      <trkpt lat="48.30715" lon="6.77625">
        <ele>505.79</ele>
        <time>2017-01-07T10:14:42Z</time>
      </trkpt>
      <trkpt lat="48.30734" lon="6.77653">
        <ele>515.4</ele>
        <time>2017-01-07T10:14:59Z</time>
      </trkpt>
      <trkpt lat="48.30746" lon="6.77673">
        <ele>515.88</ele>
        <time>2017-01-07T10:15:17Z</time>
      </trkpt>
      <trkpt lat="48.30759" lon="6.77697">
        <ele>512.52</ele>
        <time>2017-01-07T10:15:38Z</time>
      </trkpt>
      <trkpt lat="48.30772" lon="6.77721">
        <ele>515.4</ele>
        <time>2017-01-07T10:15:53Z</time>
      </trkpt>
      <trkpt lat="48.30782" lon="6.77747">
        <ele>514.92</ele>
        <time>2017-01-07T10:16:10Z</time>
      </trkpt>
      <trkpt lat="48.30796" lon="6.77774">
        <ele>518.77</ele>
        <time>2017-01-07T10:16:26Z</time>
      </trkpt>
      <trkpt lat="48.30809" lon="6.77804">
        <ele>518.29</ele>
        <time>2017-01-07T10:16:46Z</time>
      </trkpt>
      <trkpt lat="48.30827" lon="6.77835">
        <ele>522.13</ele>
        <time>2017-01-07T10:17:03Z</time>
      </trkpt>
      <trkpt lat="48.30847" lon="6.77867">
        <ele>530.3</ele>
        <time>2017-01-07T10:17:21Z</time>
      </trkpt>
      <trkpt lat="48.30858" lon="6.77879">
        <ele>525.5</ele>
        <time>2017-01-07T10:17:37Z</time>
      </trkpt>
      <trkpt lat="48.30868" lon="6.77887">
        <ele>521.17</ele>
        <time>2017-01-07T10:17:52Z</time>
      </trkpt>
      <trkpt lat="48.3088" lon="6.77917">
        <ele>523.09</ele>
        <time>2017-01-07T10:18:09Z</time>
      </trkpt>
      <trkpt lat="48.30887" lon="6.77942">
        <ele>522.61</ele>
        <time>2017-01-07T10:18:26Z</time>
      </trkpt>
      <trkpt lat="48.30889" lon="6.7796">
        <ele>523.58</ele>
        <time>2017-01-07T10:18:34Z</time>
      </trkpt>
      <trkpt lat="48.30895" lon="6.77992">
        <ele>525.5</ele>
        <time>2017-01-07T10:18:50Z</time>
      </trkpt>
      <trkpt lat="48.30898" lon="6.78022">
        <ele>526.46</ele>
        <time>2017-01-07T10:19:05Z</time>
      </trkpt>
      <trkpt lat="48.30901" lon="6.78051">
        <ele>527.42</ele>
        <time>2017-01-07T10:19:21Z</time>
      </trkpt>
      <trkpt lat="48.30907" lon="6.78091">
        <ele>530.3</ele>
        <time>2017-01-07T10:19:39Z</time>
      </trkpt>
      <trkpt lat="48.30912" lon="6.78117">
        <ele>530.3</ele>
        <time>2017-01-07T10:19:55Z</time>
      </trkpt>
      <trkpt lat="48.30916" lon="6.78151">
        <ele>532.23</ele>
        <time>2017-01-07T10:20:10Z</time>
      </trkpt>
      <trkpt lat="48.30913" lon="6.78179">
        <ele>529.82</ele>
        <time>2017-01-07T10:20:26Z</time>
      </trkpt>
      <trkpt lat="48.30912" lon="6.78181">
        <ele>529.82</ele>
        <time>2017-01-07T10:20:27Z</time>
      </trkpt>
      <trkpt lat="48.30907" lon="6.78201">
        <ele>527.42</ele>
        <time>2017-01-07T10:20:38Z</time>
      </trkpt>
      <trkpt lat="48.30895" lon="6.7823">
        <ele>523.58</ele>
        <time>2017-01-07T10:20:56Z</time>
      </trkpt>
      <trkpt lat="48.30881" lon="6.78249">
        <ele>520.21</ele>
        <time>2017-01-07T10:21:10Z</time>
      </trkpt>
      <trkpt lat="48.30865" lon="6.78275">
        <ele>514.44</ele>
        <time>2017-01-07T10:21:29Z</time>
      </trkpt>
      <trkpt lat="48.30848" lon="6.78299">
        <ele>507.23</ele>
        <time>2017-01-07T10:21:47Z</time>
      </trkpt>
      <trkpt lat="48.30836" lon="6.78312">
        <ele>505.31</ele>
        <time>2017-01-07T10:21:58Z</time>
      </trkpt>
      <trkpt lat="48.30816" lon="6.78326">
        <ele>505.31</ele>
        <time>2017-01-07T10:22:15Z</time>
      </trkpt>
      <trkpt lat="48.30797" lon="6.78337">
        <ele>505.31</ele>
        <time>2017-01-07T10:22:30Z</time>
      </trkpt>
      <trkpt lat="48.30779" lon="6.78364">
        <ele>504.35</ele>
        <time>2017-01-07T10:22:49Z</time>
      </trkpt>
      <trkpt lat="48.30776" lon="6.78381">
        <ele>503.39</ele>
        <time>2017-01-07T10:22:59Z</time>
      </trkpt>
      <trkpt lat="48.30767" lon="6.78413">
        <ele>500.5</ele>
        <time>2017-01-07T10:23:16Z</time>
      </trkpt>
      <trkpt lat="48.30762" lon="6.78439">
        <ele>497.62</ele>
        <time>2017-01-07T10:23:30Z</time>
      </trkpt>
      <trkpt lat="48.30758" lon="6.78461">
        <ele>499.54</ele>
        <time>2017-01-07T10:23:41Z</time>
      </trkpt>
      <trkpt lat="48.30756" lon="6.78501">
        <ele>498.1</ele>
        <time>2017-01-07T10:24:00Z</time>
      </trkpt>
      <trkpt lat="48.30761" lon="6.78537">
        <ele>495.22</ele>
        <time>2017-01-07T10:24:19Z</time>
      </trkpt>
      <trkpt lat="48.30765" lon="6.78571">
        <ele>498.1</ele>
        <time>2017-01-07T10:24:36Z</time>
      </trkpt>
      <trkpt lat="48.30773" lon="6.78598">
        <ele>495.7</ele>
        <time>2017-01-07T10:24:54Z</time>
      </trkpt>
      <trkpt lat="48.30789" lon="6.78614">
        <ele>493.77</ele>
        <time>2017-01-07T10:25:13Z</time>
      </trkpt>
      <trkpt lat="48.30795" lon="6.78615">
        <ele>493.29</ele>
        <time>2017-01-07T10:25:16Z</time>
      </trkpt>
      <trkpt lat="48.30816" lon="6.78626">
        <ele>490.41</ele>
        <time>2017-01-07T10:25:34Z</time>
      </trkpt>
      <trkpt lat="48.30823" lon="6.78653">
        <ele>491.37</ele>
        <time>2017-01-07T10:25:49Z</time>
      </trkpt>
      <trkpt lat="48.30821" lon="6.78681">
        <ele>494.74</ele>
        <time>2017-01-07T10:26:05Z</time>
      </trkpt>
      <trkpt lat="48.30822" lon="6.78709">
        <ele>494.74</ele>
        <time>2017-01-07T10:26:20Z</time>
      </trkpt>
      <trkpt lat="48.30824" lon="6.7874">
        <ele>494.74</ele>
        <time>2017-01-07T10:26:37Z</time>
      </trkpt>
      <trkpt lat="48.30824" lon="6.78743">
        <ele>494.74</ele>
        <time>2017-01-07T10:26:39Z</time>
      </trkpt>
      <trkpt lat="48.30821" lon="6.78776">
        <ele>494.26</ele>
        <time>2017-01-07T10:26:57Z</time>
      </trkpt>
      <trkpt lat="48.3082" lon="6.78802">
        <ele>492.81</ele>
        <time>2017-01-07T10:27:13Z</time>
      </trkpt>
      <trkpt lat="48.3082" lon="6.7883">
        <ele>493.29</ele>
        <time>2017-01-07T10:27:28Z</time>
      </trkpt>
      <trkpt lat="48.30821" lon="6.7886">
        <ele>492.81</ele>
        <time>2017-01-07T10:27:44Z</time>
      </trkpt>
      <trkpt lat="48.30825" lon="6.78888">
        <ele>489.93</ele>
        <time>2017-01-07T10:28:00Z</time>
      </trkpt>
      <trkpt lat="48.30831" lon="6.7893">
        <ele>491.37</ele>
        <time>2017-01-07T10:28:18Z</time>
      </trkpt>
      <trkpt lat="48.30833" lon="6.78955">
        <ele>488.97</ele>
        <time>2017-01-07T10:28:32Z</time>
      </trkpt>
      <trkpt lat="48.30831" lon="6.78986">
        <ele>487.53</ele>
        <time>2017-01-07T10:28:47Z</time>
      </trkpt>
      <trkpt lat="48.30824" lon="6.79013">
        <ele>486.08</ele>
        <time>2017-01-07T10:29:02Z</time>
      </trkpt>
      <trkpt lat="48.3082" lon="6.7903">
        <ele>485.12</ele>
        <time>2017-01-07T10:29:13Z</time>
      </trkpt>
      <trkpt lat="48.30813" lon="6.79054">
        <ele>481.28</ele>
        <time>2017-01-07T10:29:27Z</time>
      </trkpt>
      <trkpt lat="48.30809" lon="6.7909">
        <ele>480.32</ele>
        <time>2017-01-07T10:29:44Z</time>
      </trkpt>
      <trkpt lat="48.3081" lon="6.79117">
        <ele>480.8</ele>
        <time>2017-01-07T10:29:58Z</time>
      </trkpt>
      <trkpt lat="48.3081" lon="6.79142">
        <ele>481.28</ele>
        <time>2017-01-07T10:30:12Z</time>
      </trkpt>
      <trkpt lat="48.30811" lon="6.79174">
        <ele>479.35</ele>
        <time>2017-01-07T10:30:29Z</time>
      </trkpt>
      <trkpt lat="48.3081" lon="6.79205">
        <ele>478.87</ele>
        <time>2017-01-07T10:30:46Z</time>
      </trkpt>
      <trkpt lat="48.30809" lon="6.79242">
        <ele>475.03</ele>
        <time>2017-01-07T10:31:07Z</time>
      </trkpt>
      <trkpt lat="48.30809" lon="6.79258">
        <ele>472.14</ele>
        <time>2017-01-07T10:31:16Z</time>
      </trkpt>
      <trkpt lat="48.3081" lon="6.79289">
        <ele>470.7</ele>
        <time>2017-01-07T10:31:34Z</time>
      </trkpt>
      <trkpt lat="48.30809" lon="6.79334">
        <ele>463.01</ele>
        <time>2017-01-07T10:31:57Z</time>
      </trkpt>
      <trkpt lat="48.30809" lon="6.79369">
        <ele>457.72</ele>
        <time>2017-01-07T10:32:16Z</time>
      </trkpt>
      <trkpt lat="48.30809" lon="6.79411">
        <ele>452.92</ele>
        <time>2017-01-07T10:32:38Z</time>
      </trkpt>
      <trkpt lat="48.3081" lon="6.79446">
        <ele>450.52</ele>
        <time>2017-01-07T10:32:57Z</time>
      </trkpt>
      <trkpt lat="48.30813" lon="6.79482">
        <ele>445.71</ele>
        <time>2017-01-07T10:33:17Z</time>
      </trkpt>
      <trkpt lat="48.30814" lon="6.79498">
        <ele>443.79</ele>
        <time>2017-01-07T10:33:25Z</time>
      </trkpt>
      <trkpt lat="48.30811" lon="6.79535">
        <ele>440.42</ele>
        <time>2017-01-07T10:33:45Z</time>
      </trkpt>
      <trkpt lat="48.30799" lon="6.79573">
        <ele>441.38</ele>
        <time>2017-01-07T10:34:09Z</time>
      </trkpt>
      <trkpt lat="48.30784" lon="6.796">
        <ele>439.46</ele>
        <time>2017-01-07T10:34:29Z</time>
      </trkpt>
      <trkpt lat="48.30762" lon="6.79597">
        <ele>436.58</ele>
        <time>2017-01-07T10:34:49Z</time>
      </trkpt>
      <trkpt lat="48.30749" lon="6.79574">
        <ele>430.81</ele>
        <time>2017-01-07T10:35:08Z</time>
      </trkpt>
      <trkpt lat="48.30736" lon="6.79548">
        <ele>431.77</ele>
        <time>2017-01-07T10:35:24Z</time>
      </trkpt>
      <trkpt lat="48.30719" lon="6.79517">
        <ele>447.63</ele>
        <time>2017-01-07T10:35:40Z</time>
      </trkpt>
      <trkpt lat="48.30708" lon="6.79501">
        <ele>452.44</ele>
        <time>2017-01-07T10:35:52Z</time>
      </trkpt>
      <trkpt lat="48.30697" lon="6.79477">
        <ele>454.84</ele>
        <time>2017-01-07T10:36:07Z</time>
      </trkpt>
      <trkpt lat="48.30691" lon="6.79456">
        <ele>456.28</ele>
        <time>2017-01-07T10:36:19Z</time>
      </trkpt>
      <trkpt lat="48.30685" lon="6.79425">
        <ele>456.76</ele>
        <time>2017-01-07T10:36:34Z</time>
      </trkpt>
      <trkpt lat="48.30678" lon="6.79393">
        <ele>456.28</ele>
        <time>2017-01-07T10:36:50Z</time>
      </trkpt>
      <trkpt lat="48.30668" lon="6.79357">
        <ele>454.36</ele>
        <time>2017-01-07T10:37:10Z</time>
      </trkpt>
      <trkpt lat="48.3066" lon="6.79324">
        <ele>451.96</ele>
        <time>2017-01-07T10:37:26Z</time>
      </trkpt>
      <trkpt lat="48.30658" lon="6.79307">
        <ele>446.19</ele>
        <time>2017-01-07T10:37:41Z</time>
      </trkpt>
      <trkpt lat="48.30653" lon="6.79281">
        <ele>441.86</ele>
        <time>2017-01-07T10:37:58Z</time>
      </trkpt>
      <trkpt lat="48.30651" lon="6.79274">
        <ele>440.9</ele>
        <time>2017-01-07T10:38:02Z</time>
      </trkpt>
      <trkpt lat="48.30645" lon="6.79248">
        <ele>436.1</ele>
        <time>2017-01-07T10:38:19Z</time>
      </trkpt>
      <trkpt lat="48.30641" lon="6.79219">
        <ele>428.89</ele>
        <time>2017-01-07T10:38:38Z</time>
      </trkpt>
      <trkpt lat="48.30636" lon="6.79187">
        <ele>425.52</ele>
        <time>2017-01-07T10:38:53Z</time>
      </trkpt>
      <trkpt lat="48.30626" lon="6.7914">
        <ele>430.33</ele>
        <time>2017-01-07T10:39:14Z</time>
      </trkpt>
      <trkpt lat="48.30614" lon="6.79104">
        <ele>433.69</ele>
        <time>2017-01-07T10:39:34Z</time>
      </trkpt>
      <trkpt lat="48.30606" lon="6.79077">
        <ele>424.56</ele>
        <time>2017-01-07T10:39:55Z</time>
      </trkpt>
      <trkpt lat="48.306" lon="6.79053">
        <ele>415.43</ele>
        <time>2017-01-07T10:40:12Z</time>
      </trkpt>
      <trkpt lat="48.30594" lon="6.79018">
        <ele>413.98</ele>
        <time>2017-01-07T10:40:28Z</time>
      </trkpt>
      <trkpt lat="48.30578" lon="6.78983">
        <ele>423.12</ele>
        <time>2017-01-07T10:40:45Z</time>
      </trkpt>
      <trkpt lat="48.30569" lon="6.78946">
        <ele>427.44</ele>
        <time>2017-01-07T10:41:04Z</time>
      </trkpt>
      <trkpt lat="48.3056" lon="6.78922">
        <ele>427.44</ele>
        <time>2017-01-07T10:41:19Z</time>
      </trkpt>
      <trkpt lat="48.30553" lon="6.78892">
        <ele>423.6</ele>
        <time>2017-01-07T10:41:37Z</time>
      </trkpt>
      <trkpt lat="48.30537" lon="6.78856">
        <ele>422.64</ele>
        <time>2017-01-07T10:41:58Z</time>
      </trkpt>
      <trkpt lat="48.30522" lon="6.78826">
        <ele>422.64</ele>
        <time>2017-01-07T10:42:17Z</time>
      </trkpt>
      <trkpt lat="48.30505" lon="6.78796">
        <ele>425.52</ele>
        <time>2017-01-07T10:42:36Z</time>
      </trkpt>
      <trkpt lat="48.30494" lon="6.78776">
        <ele>420.23</ele>
        <time>2017-01-07T10:42:53Z</time>
      </trkpt>
      <trkpt lat="48.30485" lon="6.78744">
        <ele>417.35</ele>
        <time>2017-01-07T10:43:11Z</time>
      </trkpt>
      <trkpt lat="48.30479" lon="6.78713">
        <ele>415.91</ele>
        <time>2017-01-07T10:43:29Z</time>
      </trkpt>
      <trkpt lat="48.30472" lon="6.78685">
        <ele>414.47</ele>
        <time>2017-01-07T10:43:46Z</time>
      </trkpt>
      <trkpt lat="48.30474" lon="6.78655">
        <ele>411.1</ele>
        <time>2017-01-07T10:44:05Z</time>
      </trkpt>
      <trkpt lat="48.30475" lon="6.78651">
        <ele>410.62</ele>
        <time>2017-01-07T10:44:07Z</time>
      </trkpt>
      <trkpt lat="48.30477" lon="6.7863">
        <ele>410.62</ele>
        <time>2017-01-07T10:44:15Z</time>
      </trkpt>
      <trkpt lat="48.3047" lon="6.78605">
        <ele>409.18</ele>
        <time>2017-01-07T10:44:32Z</time>
      </trkpt>
      <trkpt lat="48.30454" lon="6.78582">
        <ele>419.75</ele>
        <time>2017-01-07T10:44:48Z</time>
      </trkpt>
      <trkpt lat="48.30448" lon="6.78568">
        <ele>422.16</ele>
        <time>2017-01-07T10:45:04Z</time>
      </trkpt>
      <trkpt lat="48.30442" lon="6.78575">
        <ele>422.16</ele>
        <time>2017-01-07T10:45:21Z</time>
      </trkpt>
      <trkpt lat="48.30428" lon="6.7858">
        <ele>420.23</ele>
        <time>2017-01-07T10:45:44Z</time>
      </trkpt>
      <trkpt lat="48.30436" lon="6.78555">
        <ele>419.27</ele>
        <time>2017-01-07T10:46:02Z</time>
      </trkpt>
      <trkpt lat="48.3044" lon="6.78528">
        <ele>415.91</ele>
        <time>2017-01-07T10:46:20Z</time>
      </trkpt>
      <trkpt lat="48.30439" lon="6.78517">
        <ele>414.47</ele>
        <time>2017-01-07T10:46:40Z</time>
      </trkpt>
      <trkpt lat="48.30432" lon="6.7848">
        <ele>408.22</ele>
        <time>2017-01-07T10:47:00Z</time>
      </trkpt>
      <trkpt lat="48.30429" lon="6.78449">
        <ele>404.85</ele>
        <time>2017-01-07T10:47:17Z</time>
      </trkpt>
      <trkpt lat="48.30415" lon="6.78413">
        <ele>406.77</ele>
        <time>2017-01-07T10:47:41Z</time>
      </trkpt>
      <trkpt lat="48.30375" lon="6.78408">
        <ele>410.14</ele>
        <time>2017-01-07T10:48:04Z</time>
      </trkpt>
      <trkpt lat="48.30356" lon="6.78429">
        <ele>412.54</ele>
        <time>2017-01-07T10:48:26Z</time>
      </trkpt>
      <trkpt lat="48.3033" lon="6.78439">
        <ele>414.95</ele>
        <time>2017-01-07T10:48:51Z</time>
      </trkpt>
      <trkpt lat="48.30316" lon="6.78462">
        <ele>417.35</ele>
        <time>2017-01-07T10:49:15Z</time>
      </trkpt>
      <trkpt lat="48.30305" lon="6.78485">
        <ele>418.31</ele>
        <time>2017-01-07T10:49:37Z</time>
      </trkpt>
      <trkpt lat="48.30289" lon="6.78501">
        <ele>414.47</ele>
        <time>2017-01-07T10:49:58Z</time>
      </trkpt>
      <trkpt lat="48.30267" lon="6.78525">
        <ele>411.58</ele>
        <time>2017-01-07T10:50:20Z</time>
      </trkpt>
      <trkpt lat="48.30244" lon="6.78539">
        <ele>417.83</ele>
        <time>2017-01-07T10:50:39Z</time>
      </trkpt>
      <trkpt lat="48.30239" lon="6.78539">
        <ele>417.83</ele>
        <time>2017-01-07T10:50:46Z</time>
      </trkpt>
      <trkpt lat="48.30218" lon="6.78531">
        <ele>420.71</ele>
        <time>2017-01-07T10:51:05Z</time>
      </trkpt>
      <trkpt lat="48.30193" lon="6.78524">
        <ele>418.31</ele>
        <time>2017-01-07T10:51:24Z</time>
      </trkpt>
      <trkpt lat="48.30174" lon="6.78525">
        <ele>417.35</ele>
        <time>2017-01-07T10:51:39Z</time>
      </trkpt>
      <trkpt lat="48.3016" lon="6.78517">
        <ele>414.47</ele>
        <time>2017-01-07T10:51:53Z</time>
      </trkpt>
      <trkpt lat="48.30148" lon="6.78483">
        <ele>412.54</ele>
        <time>2017-01-07T10:52:17Z</time>
      </trkpt>
      <trkpt lat="48.30118" lon="6.78452">
        <ele>412.06</ele>
        <time>2017-01-07T10:52:45Z</time>
      </trkpt>
      <trkpt lat="48.30096" lon="6.78427">
        <ele>412.54</ele>
        <time>2017-01-07T10:53:05Z</time>
      </trkpt>
      <trkpt lat="48.30078" lon="6.78411">
        <ele>411.1</ele>
        <time>2017-01-07T10:53:28Z</time>
      </trkpt>
      <trkpt lat="48.30061" lon="6.78388">
        <ele>407.74</ele>
        <time>2017-01-07T10:53:53Z</time>
      </trkpt>
      <trkpt lat="48.30046" lon="6.78367">
        <ele>406.29</ele>
        <time>2017-01-07T10:54:19Z</time>
      </trkpt>
      <trkpt lat="48.30023" lon="6.78335">
        <ele>408.7</ele>
        <time>2017-01-07T10:54:40Z</time>
      </trkpt>
      <trkpt lat="48.29999" lon="6.78297">
        <ele>417.35</ele>
        <time>2017-01-07T10:55:07Z</time>
      </trkpt>
      <trkpt lat="48.29988" lon="6.78284">
        <ele>419.75</ele>
        <time>2017-01-07T10:55:29Z</time>
      </trkpt>
      <trkpt lat="48.2997" lon="6.78243">
        <ele>420.23</ele>
        <time>2017-01-07T10:55:53Z</time>
      </trkpt>
      <trkpt lat="48.29939" lon="6.78222">
        <ele>427.44</ele>
        <time>2017-01-07T10:56:19Z</time>
      </trkpt>
      <trkpt lat="48.29922" lon="6.78187">
        <ele>436.58</ele>
        <time>2017-01-07T10:56:45Z</time>
      </trkpt>
      <trkpt lat="48.29903" lon="6.78157">
        <ele>443.31</ele>
        <time>2017-01-07T10:57:11Z</time>
      </trkpt>
      <trkpt lat="48.29917" lon="6.78128">
        <ele>430.81</ele>
        <time>2017-01-07T10:57:31Z</time>
      </trkpt>
      <trkpt lat="48.29952" lon="6.78091">
        <ele>390.43</ele>
        <time>2017-01-07T10:57:52Z</time>
      </trkpt>
      <trkpt lat="48.29978" lon="6.78097">
        <ele>351.02</ele>
        <time>2017-01-07T10:58:15Z</time>
      </trkpt>
      <trkpt lat="48.29951" lon="6.78118">
        <ele>326.5</ele>
        <time>2017-01-07T10:58:36Z</time>
      </trkpt>
      <trkpt lat="48.29876" lon="6.78121">
        <ele>346.69</ele>
        <time>2017-01-07T10:59:01Z</time>
      </trkpt>
      <trkpt lat="48.2986" lon="6.78125">
        <ele>353.42</ele>
        <time>2017-01-07T10:59:19Z</time>
      </trkpt>
      <trkpt lat="48.29828" lon="6.781">
        <ele>370.73</ele>
        <time>2017-01-07T10:59:42Z</time>
      </trkpt>
      <trkpt lat="48.29767" lon="6.78033">
        <ele>406.29</ele>
        <time>2017-01-07T11:00:06Z</time>
      </trkpt>
      <trkpt lat="48.29736" lon="6.78014">
        <ele>423.12</ele>
        <time>2017-01-07T11:00:28Z</time>
      </trkpt>
      <trkpt lat="48.29712" lon="6.78002">
        <ele>430.33</ele>
        <time>2017-01-07T11:00:48Z</time>
      </trkpt>
      <trkpt lat="48.29678" lon="6.78001">
        <ele>458.21</ele>
        <time>2017-01-07T11:01:10Z</time>
      </trkpt>
      <trkpt lat="48.2965" lon="6.77982">
        <ele>471.18</ele>
        <time>2017-01-07T11:01:38Z</time>
      </trkpt>
      <trkpt lat="48.29624" lon="6.77966">
        <ele>478.39</ele>
        <time>2017-01-07T11:02:04Z</time>
      </trkpt>
      <trkpt lat="48.29606" lon="6.77958">
        <ele>482.24</ele>
        <time>2017-01-07T11:02:25Z</time>
      </trkpt>
      <trkpt lat="48.29579" lon="6.77939">
        <ele>486.08</ele>
        <time>2017-01-07T11:02:51Z</time>
      </trkpt>
      <trkpt lat="48.29566" lon="6.77931">
        <ele>489.45</ele>
        <time>2017-01-07T11:03:06Z</time>
      </trkpt>
      <trkpt lat="48.29559" lon="6.77918">
        <ele>492.33</ele>
        <time>2017-01-07T11:03:17Z</time>
      </trkpt>
      <trkpt lat="48.29557" lon="6.77913">
        <ele>492.33</ele>
        <time>2017-01-07T11:03:22Z</time>
      </trkpt>
      <trkpt lat="48.29547" lon="6.77927">
        <ele>493.29</ele>
        <time>2017-01-07T11:03:37Z</time>
      </trkpt>
      <trkpt lat="48.29537" lon="6.77939">
        <ele>492.81</ele>
        <time>2017-01-07T11:03:53Z</time>
      </trkpt>
      <trkpt lat="48.29525" lon="6.77954">
        <ele>489.45</ele>
        <time>2017-01-07T11:04:09Z</time>
      </trkpt>
      <trkpt lat="48.29509" lon="6.7797">
        <ele>489.93</ele>
        <time>2017-01-07T11:04:26Z</time>
      </trkpt>
      <trkpt lat="48.29493" lon="6.7798">
        <ele>488.01</ele>
        <time>2017-01-07T11:04:44Z</time>
      </trkpt>
      <trkpt lat="48.29473" lon="6.7799">
        <ele>490.41</ele>
        <time>2017-01-07T11:05:00Z</time>
      </trkpt>
      <trkpt lat="48.29453" lon="6.78006">
        <ele>491.37</ele>
        <time>2017-01-07T11:05:21Z</time>
      </trkpt>
      <trkpt lat="48.29424" lon="6.77996">
        <ele>488.97</ele>
        <time>2017-01-07T11:05:43Z</time>
      </trkpt>
      <trkpt lat="48.29402" lon="6.77996">
        <ele>488.01</ele>
        <time>2017-01-07T11:06:01Z</time>
      </trkpt>
      <trkpt lat="48.29373" lon="6.78006">
        <ele>489.45</ele>
        <time>2017-01-07T11:06:23Z</time>
      </trkpt>
      <trkpt lat="48.29342" lon="6.78001">
        <ele>493.29</ele>
        <time>2017-01-07T11:06:48Z</time>
      </trkpt>
      <trkpt lat="48.29337" lon="6.77996">
        <ele>492.81</ele>
        <time>2017-01-07T11:06:54Z</time>
      </trkpt>
      <trkpt lat="48.29315" lon="6.77964">
        <ele>494.74</ele>
        <time>2017-01-07T11:07:19Z</time>
      </trkpt>
      <trkpt lat="48.29299" lon="6.77936">
        <ele>499.54</ele>
        <time>2017-01-07T11:07:40Z</time>
      </trkpt>
      <trkpt lat="48.29276" lon="6.77908">
        <ele>501.46</ele>
        <time>2017-01-07T11:08:03Z</time>
      </trkpt>
      <trkpt lat="48.29257" lon="6.77886">
        <ele>500.5</ele>
        <time>2017-01-07T11:08:25Z</time>
      </trkpt>
      <trkpt lat="48.29241" lon="6.77873">
        <ele>499.54</ele>
        <time>2017-01-07T11:08:40Z</time>
      </trkpt>
      <trkpt lat="48.29223" lon="6.77854">
        <ele>495.7</ele>
        <time>2017-01-07T11:09:01Z</time>
      </trkpt>
      <trkpt lat="48.29206" lon="6.77838">
        <ele>494.26</ele>
        <time>2017-01-07T11:09:18Z</time>
      </trkpt>
      <trkpt lat="48.29193" lon="6.77827">
        <ele>493.29</ele>
        <time>2017-01-07T11:09:29Z</time>
      </trkpt>
      <trkpt lat="48.29175" lon="6.77805">
        <ele>492.33</ele>
        <time>2017-01-07T11:09:48Z</time>
      </trkpt>
      <trkpt lat="48.29156" lon="6.77792">
        <ele>491.37</ele>
        <time>2017-01-07T11:10:09Z</time>
      </trkpt>
      <trkpt lat="48.29135" lon="6.77775">
        <ele>491.85</ele>
        <time>2017-01-07T11:10:31Z</time>
      </trkpt>
      <trkpt lat="48.29129" lon="6.77784">
        <ele>490.89</ele>
        <time>2017-01-07T11:10:39Z</time>
      </trkpt>
      <trkpt lat="48.29106" lon="6.77815">
        <ele>492.81</ele>
        <time>2017-01-07T11:11:03Z</time>
      </trkpt>
      <trkpt lat="48.2909" lon="6.77844">
        <ele>493.77</ele>
        <time>2017-01-07T11:11:25Z</time>
      </trkpt>
      <trkpt lat="48.29068" lon="6.77882">
        <ele>497.62</ele>
        <time>2017-01-07T11:11:49Z</time>
      </trkpt>
      <trkpt lat="48.29053" lon="6.77905">
        <ele>495.22</ele>
        <time>2017-01-07T11:12:07Z</time>
      </trkpt>
      <trkpt lat="48.29041" lon="6.77927">
        <ele>487.53</ele>
        <time>2017-01-07T11:12:24Z</time>
      </trkpt>
      <trkpt lat="48.29033" lon="6.77946">
        <ele>476.47</ele>
        <time>2017-01-07T11:12:41Z</time>
      </trkpt>
      <trkpt lat="48.29032" lon="6.77967">
        <ele>467.34</ele>
        <time>2017-01-07T11:12:58Z</time>
      </trkpt>
      <trkpt lat="48.29033" lon="6.77989">
        <ele>467.82</ele>
        <time>2017-01-07T11:13:14Z</time>
      </trkpt>
      <trkpt lat="48.29032" lon="6.78021">
        <ele>464.45</ele>
        <time>2017-01-07T11:13:32Z</time>
      </trkpt>
      <trkpt lat="48.29027" lon="6.78061">
        <ele>467.34</ele>
        <time>2017-01-07T11:13:50Z</time>
      </trkpt>
      <trkpt lat="48.29029" lon="6.78088">
        <ele>456.76</ele>
        <time>2017-01-07T11:14:09Z</time>
      </trkpt>
      <trkpt lat="48.29026" lon="6.78114">
        <ele>462.53</ele>
        <time>2017-01-07T11:14:25Z</time>
      </trkpt>
      <trkpt lat="48.29015" lon="6.78153">
        <ele>471.66</ele>
        <time>2017-01-07T11:14:39Z</time>
      </trkpt>
      <trkpt lat="48.29013" lon="6.78183">
        <ele>474.07</ele>
        <time>2017-01-07T11:14:52Z</time>
      </trkpt>
      <trkpt lat="48.29007" lon="6.78215">
        <ele>480.32</ele>
        <time>2017-01-07T11:15:07Z</time>
      </trkpt>
      <trkpt lat="48.28999" lon="6.7823">
        <ele>478.39</ele>
        <time>2017-01-07T11:15:21Z</time>
      </trkpt>
      <trkpt lat="48.28983" lon="6.78258">
        <ele>488.49</ele>
        <time>2017-01-07T11:15:36Z</time>
      </trkpt>
      <trkpt lat="48.28978" lon="6.78275">
        <ele>483.68</ele>
        <time>2017-01-07T11:15:50Z</time>
      </trkpt>
      <trkpt lat="48.28973" lon="6.78294">
        <ele>482.72</ele>
        <time>2017-01-07T11:16:06Z</time>
      </trkpt>
      <trkpt lat="48.28966" lon="6.78306">
        <ele>475.51</ele>
        <time>2017-01-07T11:16:22Z</time>
      </trkpt>
      <trkpt lat="48.28946" lon="6.7832">
        <ele>469.26</ele>
        <time>2017-01-07T11:16:40Z</time>
      </trkpt>
      <trkpt lat="48.28926" lon="6.78326">
        <ele>467.34</ele>
        <time>2017-01-07T11:16:58Z</time>
      </trkpt>
      <trkpt lat="48.28905" lon="6.78325">
        <ele>473.11</ele>
        <time>2017-01-07T11:17:19Z</time>
      </trkpt>
      <trkpt lat="48.28885" lon="6.78323">
        <ele>476.47</ele>
        <time>2017-01-07T11:17:38Z</time>
      </trkpt>
      <trkpt lat="48.28862" lon="6.78326">
        <ele>495.7</ele>
        <time>2017-01-07T11:17:58Z</time>
      </trkpt>
      <trkpt lat="48.28845" lon="6.78323">
        <ele>502.91</ele>
        <time>2017-01-07T11:18:16Z</time>
      </trkpt>
      <trkpt lat="48.2883" lon="6.78316">
        <ele>509.64</ele>
        <time>2017-01-07T11:18:34Z</time>
      </trkpt>
      <trkpt lat="48.28823" lon="6.78306">
        <ele>510.6</ele>
        <time>2017-01-07T11:18:53Z</time>
      </trkpt>
      <trkpt lat="48.2881" lon="6.78283">
        <ele>513</ele>
        <time>2017-01-07T11:19:12Z</time>
      </trkpt>
      <trkpt lat="48.28795" lon="6.78267">
        <ele>513.96</ele>
        <time>2017-01-07T11:19:31Z</time>
      </trkpt>
      <trkpt lat="48.28787" lon="6.78244">
        <ele>513.48</ele>
        <time>2017-01-07T11:19:48Z</time>
      </trkpt>
      <trkpt lat="48.28783" lon="6.78221">
        <ele>513</ele>
        <time>2017-01-07T11:20:02Z</time>
      </trkpt>
      <trkpt lat="48.28786" lon="6.7819">
        <ele>512.52</ele>
        <time>2017-01-07T11:20:20Z</time>
      </trkpt>
      <trkpt lat="48.2879" lon="6.7815">
        <ele>512.52</ele>
        <time>2017-01-07T11:20:37Z</time>
      </trkpt>
      <trkpt lat="48.28792" lon="6.78126">
        <ele>514.44</ele>
        <time>2017-01-07T11:20:48Z</time>
      </trkpt>
      <trkpt lat="48.28793" lon="6.7812">
        <ele>513.48</ele>
        <time>2017-01-07T11:20:53Z</time>
      </trkpt>
      <trkpt lat="48.28799" lon="6.781">
        <ele>511.08</ele>
        <time>2017-01-07T11:21:05Z</time>
      </trkpt>
      <trkpt lat="48.28801" lon="6.78067">
        <ele>511.08</ele>
        <time>2017-01-07T11:21:23Z</time>
      </trkpt>
      <trkpt lat="48.28809" lon="6.78032">
        <ele>511.08</ele>
        <time>2017-01-07T11:21:41Z</time>
      </trkpt>
      <trkpt lat="48.28813" lon="6.78008">
        <ele>511.08</ele>
        <time>2017-01-07T11:21:56Z</time>
      </trkpt>
      <trkpt lat="48.28822" lon="6.77982">
        <ele>514.44</ele>
        <time>2017-01-07T11:22:12Z</time>
      </trkpt>
      <trkpt lat="48.28829" lon="6.77948">
        <ele>514.92</ele>
        <time>2017-01-07T11:22:29Z</time>
      </trkpt>
      <trkpt lat="48.28827" lon="6.7791">
        <ele>520.21</ele>
        <time>2017-01-07T11:22:44Z</time>
      </trkpt>
      <trkpt lat="48.28814" lon="6.77878">
        <ele>519.73</ele>
        <time>2017-01-07T11:23:03Z</time>
      </trkpt>
      <trkpt lat="48.28801" lon="6.77855">
        <ele>519.73</ele>
        <time>2017-01-07T11:23:18Z</time>
      </trkpt>
      <trkpt lat="48.28788" lon="6.77833">
        <ele>518.29</ele>
        <time>2017-01-07T11:23:34Z</time>
      </trkpt>
      <trkpt lat="48.28771" lon="6.77809">
        <ele>515.4</ele>
        <time>2017-01-07T11:23:51Z</time>
      </trkpt>
      <trkpt lat="48.28755" lon="6.77787">
        <ele>513.96</ele>
        <time>2017-01-07T11:24:07Z</time>
      </trkpt>
      <trkpt lat="48.28735" lon="6.77757">
        <ele>515.88</ele>
        <time>2017-01-07T11:24:27Z</time>
      </trkpt>
      <trkpt lat="48.28723" lon="6.77734">
        <ele>516.37</ele>
        <time>2017-01-07T11:24:44Z</time>
      </trkpt>
      <trkpt lat="48.28715" lon="6.77702">
        <ele>517.81</ele>
        <time>2017-01-07T11:25:02Z</time>
      </trkpt>
      <trkpt lat="48.28709" lon="6.77675">
        <ele>517.33</ele>
        <time>2017-01-07T11:25:20Z</time>
      </trkpt>
      <trkpt lat="48.28704" lon="6.77646">
        <ele>517.33</ele>
        <time>2017-01-07T11:25:37Z</time>
      </trkpt>
      <trkpt lat="48.28699" lon="6.77602">
        <ele>528.86</ele>
        <time>2017-01-07T11:25:55Z</time>
      </trkpt>
      <trkpt lat="48.28684" lon="6.77578">
        <ele>524.06</ele>
        <time>2017-01-07T11:26:11Z</time>
      </trkpt>
      <trkpt lat="48.28681" lon="6.77559">
        <ele>523.58</ele>
        <time>2017-01-07T11:26:22Z</time>
      </trkpt>
      <trkpt lat="48.28681" lon="6.77527">
        <ele>521.17</ele>
        <time>2017-01-07T11:26:39Z</time>
      </trkpt>
      <trkpt lat="48.28681" lon="6.77493">
        <ele>518.29</ele>
        <time>2017-01-07T11:26:56Z</time>
      </trkpt>
      <trkpt lat="48.2868" lon="6.77467">
        <ele>516.85</ele>
        <time>2017-01-07T11:27:11Z</time>
      </trkpt>
      <trkpt lat="48.28679" lon="6.77436">
        <ele>517.81</ele>
        <time>2017-01-07T11:27:29Z</time>
      </trkpt>
      <trkpt lat="48.28677" lon="6.77402">
        <ele>520.69</ele>
        <time>2017-01-07T11:27:47Z</time>
      </trkpt>
      <trkpt lat="48.28672" lon="6.77381">
        <ele>517.81</ele>
        <time>2017-01-07T11:28:00Z</time>
      </trkpt>
      <trkpt lat="48.28668" lon="6.77366">
        <ele>516.37</ele>
        <time>2017-01-07T11:28:08Z</time>
      </trkpt>
      <trkpt lat="48.28669" lon="6.77355">
        <ele>517.81</ele>
        <time>2017-01-07T11:28:12Z</time>
      </trkpt>
      <trkpt lat="48.28668" lon="6.77333">
        <ele>519.73</ele>
        <time>2017-01-07T11:28:22Z</time>
      </trkpt>
      <trkpt lat="48.28661" lon="6.77308">
        <ele>514.44</ele>
        <time>2017-01-07T11:28:37Z</time>
      </trkpt>
      <trkpt lat="48.2866" lon="6.77297">
        <ele>514.44</ele>
        <time>2017-01-07T11:28:43Z</time>
      </trkpt>
      <trkpt lat="48.28665" lon="6.7727">
        <ele>516.37</ele>
        <time>2017-01-07T11:28:56Z</time>
      </trkpt>
      <trkpt lat="48.28672" lon="6.77241">
        <ele>521.17</ele>
        <time>2017-01-07T11:29:07Z</time>
      </trkpt>
      <trkpt lat="48.28666" lon="6.7721">
        <ele>525.5</ele>
        <time>2017-01-07T11:29:22Z</time>
      </trkpt>
      <trkpt lat="48.28663" lon="6.77203">
        <ele>525.02</ele>
        <time>2017-01-07T11:29:26Z</time>
      </trkpt>
      <trkpt lat="48.28659" lon="6.7717">
        <ele>525.5</ele>
        <time>2017-01-07T11:29:40Z</time>
      </trkpt>
      <trkpt lat="48.28656" lon="6.77155">
        <ele>524.06</ele>
        <time>2017-01-07T11:29:50Z</time>
      </trkpt>
      <trkpt lat="48.28654" lon="6.77141">
        <ele>521.65</ele>
        <time>2017-01-07T11:29:58Z</time>
      </trkpt>
      <trkpt lat="48.28655" lon="6.77114">
        <ele>520.21</ele>
        <time>2017-01-07T11:30:12Z</time>
      </trkpt>
      <trkpt lat="48.28652" lon="6.77088">
        <ele>518.77</ele>
        <time>2017-01-07T11:30:24Z</time>
      </trkpt>
      <trkpt lat="48.28651" lon="6.77059">
        <ele>513.96</ele>
        <time>2017-01-07T11:30:39Z</time>
      </trkpt>
      <trkpt lat="48.28645" lon="6.77024">
        <ele>515.4</ele>
        <time>2017-01-07T11:30:55Z</time>
      </trkpt>
      <trkpt lat="48.28638" lon="6.76998">
        <ele>516.37</ele>
        <time>2017-01-07T11:31:08Z</time>
      </trkpt>
      <trkpt lat="48.28633" lon="6.76971">
        <ele>514.92</ele>
        <time>2017-01-07T11:31:23Z</time>
      </trkpt>
      <trkpt lat="48.28629" lon="6.7694">
        <ele>511.08</ele>
        <time>2017-01-07T11:31:42Z</time>
      </trkpt>
      <trkpt lat="48.2863" lon="6.76937">
        <ele>510.6</ele>
        <time>2017-01-07T11:31:44Z</time>
      </trkpt>
      <trkpt lat="48.28629" lon="6.76921">
        <ele>509.64</ele>
        <time>2017-01-07T11:31:53Z</time>
      </trkpt>
      <trkpt lat="48.28628" lon="6.76886">
        <ele>513.96</ele>
        <time>2017-01-07T11:32:10Z</time>
      </trkpt>
      <trkpt lat="48.28626" lon="6.76855">
        <ele>513.96</ele>
        <time>2017-01-07T11:32:25Z</time>
      </trkpt>
      <trkpt lat="48.28623" lon="6.76821">
        <ele>512.52</ele>
        <time>2017-01-07T11:32:42Z</time>
      </trkpt>
      <trkpt lat="48.28622" lon="6.76813">
        <ele>511.08</ele>
        <time>2017-01-07T11:32:46Z</time>
      </trkpt>
      <trkpt lat="48.28621" lon="6.76787">
        <ele>508.67</ele>
        <time>2017-01-07T11:32:59Z</time>
      </trkpt>
      <trkpt lat="48.28622" lon="6.76758">
        <ele>506.27</ele>
        <time>2017-01-07T11:33:12Z</time>
      </trkpt>
      <trkpt lat="48.28619" lon="6.76731">
        <ele>505.31</ele>
        <time>2017-01-07T11:33:26Z</time>
      </trkpt>
      <trkpt lat="48.28611" lon="6.76701">
        <ele>506.75</ele>
        <time>2017-01-07T11:33:41Z</time>
      </trkpt>
      <trkpt lat="48.28596" lon="6.76676">
        <ele>508.19</ele>
        <time>2017-01-07T11:33:54Z</time>
      </trkpt>
      <trkpt lat="48.28585" lon="6.76656">
        <ele>512.52</ele>
        <time>2017-01-07T11:34:06Z</time>
      </trkpt>
      <trkpt lat="48.28576" lon="6.76645">
        <ele>514.92</ele>
        <time>2017-01-07T11:34:13Z</time>
      </trkpt>
      <trkpt lat="48.28558" lon="6.76625">
        <ele>520.21</ele>
        <time>2017-01-07T11:34:31Z</time>
      </trkpt>
      <trkpt lat="48.28543" lon="6.7661">
        <ele>523.09</ele>
        <time>2017-01-07T11:34:44Z</time>
      </trkpt>
      <trkpt lat="48.28522" lon="6.76589">
        <ele>525.5</ele>
        <time>2017-01-07T11:35:00Z</time>
      </trkpt>
      <trkpt lat="48.28506" lon="6.76571">
        <ele>529.82</ele>
        <time>2017-01-07T11:35:14Z</time>
      </trkpt>
      <trkpt lat="48.28495" lon="6.76553">
        <ele>533.67</ele>
        <time>2017-01-07T11:35:29Z</time>
      </trkpt>
      <trkpt lat="48.28481" lon="6.76525">
        <ele>535.11</ele>
        <time>2017-01-07T11:35:45Z</time>
      </trkpt>
      <trkpt lat="48.2847" lon="6.76501">
        <ele>535.11</ele>
        <time>2017-01-07T11:35:59Z</time>
      </trkpt>
      <trkpt lat="48.28465" lon="6.76477">
        <ele>532.23</ele>
        <time>2017-01-07T11:36:15Z</time>
      </trkpt>
      <trkpt lat="48.28466" lon="6.76451">
        <ele>531.75</ele>
        <time>2017-01-07T11:36:28Z</time>
      </trkpt>
      <trkpt lat="48.28469" lon="6.76431">
        <ele>529.82</ele>
        <time>2017-01-07T11:36:38Z</time>
      </trkpt>
      <trkpt lat="48.2847" lon="6.76421">
        <ele>530.3</ele>
        <time>2017-01-07T11:36:43Z</time>
      </trkpt>
      <trkpt lat="48.28461" lon="6.76391">
        <ele>525.98</ele>
        <time>2017-01-07T11:36:59Z</time>
      </trkpt>
      <trkpt lat="48.28451" lon="6.76367">
        <ele>521.17</ele>
        <time>2017-01-07T11:37:12Z</time>
      </trkpt>
      <trkpt lat="48.28446" lon="6.76343">
        <ele>519.73</ele>
        <time>2017-01-07T11:37:22Z</time>
      </trkpt>
      <trkpt lat="48.28438" lon="6.7632">
        <ele>519.73</ele>
        <time>2017-01-07T11:37:34Z</time>
      </trkpt>
      <trkpt lat="48.28437" lon="6.76316">
        <ele>519.73</ele>
        <time>2017-01-07T11:37:36Z</time>
      </trkpt>
      <trkpt lat="48.28434" lon="6.76297">
        <ele>519.73</ele>
        <time>2017-01-07T11:37:47Z</time>
      </trkpt>
      <trkpt lat="48.2843" lon="6.76272">
        <ele>518.77</ele>
        <time>2017-01-07T11:37:57Z</time>
      </trkpt>
      <trkpt lat="48.28429" lon="6.76257">
        <ele>520.21</ele>
        <time>2017-01-07T11:38:04Z</time>
      </trkpt>
      <trkpt lat="48.28428" lon="6.76243">
        <ele>520.69</ele>
        <time>2017-01-07T11:38:10Z</time>
      </trkpt>
      <trkpt lat="48.2843" lon="6.76226">
        <ele>519.73</ele>
        <time>2017-01-07T11:38:19Z</time>
      </trkpt>
      <trkpt lat="48.28428" lon="6.76206">
        <ele>518.29</ele>
        <time>2017-01-07T11:38:30Z</time>
      </trkpt>
      <trkpt lat="48.28438" lon="6.76169">
        <ele>514.92</ele>
        <time>2017-01-07T11:38:46Z</time>
      </trkpt>
      <trkpt lat="48.28438" lon="6.76163">
        <ele>513.96</ele>
        <time>2017-01-07T11:38:49Z</time>
      </trkpt>
      <trkpt lat="48.28443" lon="6.76136">
        <ele>507.23</ele>
        <time>2017-01-07T11:39:05Z</time>
      </trkpt>
      <trkpt lat="48.2845" lon="6.76105">
        <ele>504.35</ele>
        <time>2017-01-07T11:39:19Z</time>
      </trkpt>
      <trkpt lat="48.28469" lon="6.76063">
        <ele>501.46</ele>
        <time>2017-01-07T11:39:38Z</time>
      </trkpt>
      <trkpt lat="48.28475" lon="6.7604">
        <ele>500.5</ele>
        <time>2017-01-07T11:39:51Z</time>
      </trkpt>
      <trkpt lat="48.28479" lon="6.76024">
        <ele>498.58</ele>
        <time>2017-01-07T11:39:58Z</time>
      </trkpt>
      <trkpt lat="48.28482" lon="6.76018">
        <ele>499.06</ele>
        <time>2017-01-07T11:40:01Z</time>
      </trkpt>
      <trkpt lat="48.28485" lon="6.76008">
        <ele>500.02</ele>
        <time>2017-01-07T11:40:06Z</time>
      </trkpt>
      <trkpt lat="48.28486" lon="6.7599">
        <ele>500.02</ele>
        <time>2017-01-07T11:40:16Z</time>
      </trkpt>
      <trkpt lat="48.28487" lon="6.75955">
        <ele>497.14</ele>
        <time>2017-01-07T11:40:31Z</time>
      </trkpt>
      <trkpt lat="48.28487" lon="6.75952">
        <ele>496.18</ele>
        <time>2017-01-07T11:40:33Z</time>
      </trkpt>
      <trkpt lat="48.28485" lon="6.75946">
        <ele>495.22</ele>
        <time>2017-01-07T11:40:36Z</time>
      </trkpt>
      <trkpt lat="48.28485" lon="6.75938">
        <ele>495.22</ele>
        <time>2017-01-07T11:40:39Z</time>
      </trkpt>
      <trkpt lat="48.28477" lon="6.75907">
        <ele>490.41</ele>
        <time>2017-01-07T11:40:53Z</time>
      </trkpt>
      <trkpt lat="48.28468" lon="6.75882">
        <ele>487.53</ele>
        <time>2017-01-07T11:41:05Z</time>
      </trkpt>
      <trkpt lat="48.28464" lon="6.75868">
        <ele>488.49</ele>
        <time>2017-01-07T11:41:13Z</time>
      </trkpt>
      <trkpt lat="48.28459" lon="6.7586">
        <ele>489.93</ele>
        <time>2017-01-07T11:41:18Z</time>
      </trkpt>
      <trkpt lat="48.28456" lon="6.75856">
        <ele>489.93</ele>
        <time>2017-01-07T11:41:20Z</time>
      </trkpt>
      <trkpt lat="48.28454" lon="6.7585">
        <ele>490.41</ele>
        <time>2017-01-07T11:41:23Z</time>
      </trkpt>
      <trkpt lat="48.28442" lon="6.75823">
        <ele>495.22</ele>
        <time>2017-01-07T11:41:38Z</time>
      </trkpt>
      <trkpt lat="48.28431" lon="6.758">
        <ele>498.58</ele>
        <time>2017-01-07T11:41:51Z</time>
      </trkpt>
      <trkpt lat="48.28424" lon="6.75786">
        <ele>501.46</ele>
        <time>2017-01-07T11:41:59Z</time>
      </trkpt>
      <trkpt lat="48.28411" lon="6.75768">
        <ele>503.39</ele>
        <time>2017-01-07T11:42:10Z</time>
      </trkpt>
      <trkpt lat="48.28402" lon="6.75745">
        <ele>506.27</ele>
        <time>2017-01-07T11:42:24Z</time>
      </trkpt>
      <trkpt lat="48.28386" lon="6.75719">
        <ele>509.16</ele>
        <time>2017-01-07T11:42:38Z</time>
      </trkpt>
      <trkpt lat="48.28373" lon="6.75696">
        <ele>510.12</ele>
        <time>2017-01-07T11:42:53Z</time>
      </trkpt>
      <trkpt lat="48.28362" lon="6.75669">
        <ele>510.12</ele>
        <time>2017-01-07T11:43:11Z</time>
      </trkpt>
      <trkpt lat="48.28349" lon="6.75642">
        <ele>508.19</ele>
        <time>2017-01-07T11:43:28Z</time>
      </trkpt>
      <trkpt lat="48.28336" lon="6.75612">
        <ele>506.27</ele>
        <time>2017-01-07T11:43:46Z</time>
      </trkpt>
      <trkpt lat="48.28324" lon="6.75584">
        <ele>504.35</ele>
        <time>2017-01-07T11:44:03Z</time>
      </trkpt>
      <trkpt lat="48.28308" lon="6.75554">
        <ele>502.91</ele>
        <time>2017-01-07T11:44:19Z</time>
      </trkpt>
      <trkpt lat="48.28291" lon="6.7552">
        <ele>502.91</ele>
        <time>2017-01-07T11:44:37Z</time>
      </trkpt>
      <trkpt lat="48.28283" lon="6.75496">
        <ele>500.98</ele>
        <time>2017-01-07T11:44:52Z</time>
      </trkpt>
      <trkpt lat="48.28272" lon="6.75465">
        <ele>500.5</ele>
        <time>2017-01-07T11:45:09Z</time>
      </trkpt>
      <trkpt lat="48.28262" lon="6.75429">
        <ele>503.39</ele>
        <time>2017-01-07T11:45:26Z</time>
      </trkpt>
      <trkpt lat="48.28251" lon="6.75397">
        <ele>503.39</ele>
        <time>2017-01-07T11:45:43Z</time>
      </trkpt>
      <trkpt lat="48.28246" lon="6.75362">
        <ele>501.46</ele>
        <time>2017-01-07T11:46:00Z</time>
      </trkpt>
      <trkpt lat="48.28236" lon="6.75328">
        <ele>501.46</ele>
        <time>2017-01-07T11:46:16Z</time>
      </trkpt>
      <trkpt lat="48.28226" lon="6.75296">
        <ele>499.06</ele>
        <time>2017-01-07T11:46:32Z</time>
      </trkpt>
      <trkpt lat="48.28215" lon="6.75258">
        <ele>496.66</ele>
        <time>2017-01-07T11:46:50Z</time>
      </trkpt>
      <trkpt lat="48.28207" lon="6.75224">
        <ele>494.74</ele>
        <time>2017-01-07T11:47:07Z</time>
      </trkpt>
      <trkpt lat="48.28199" lon="6.75195">
        <ele>495.22</ele>
        <time>2017-01-07T11:47:22Z</time>
      </trkpt>
      <trkpt lat="48.28189" lon="6.75166">
        <ele>490.89</ele>
        <time>2017-01-07T11:47:37Z</time>
      </trkpt>
      <trkpt lat="48.28178" lon="6.75123">
        <ele>487.53</ele>
        <time>2017-01-07T11:47:58Z</time>
      </trkpt>
      <trkpt lat="48.28168" lon="6.75089">
        <ele>486.56</ele>
        <time>2017-01-07T11:48:16Z</time>
      </trkpt>
      <trkpt lat="48.28158" lon="6.75059">
        <ele>484.64</ele>
        <time>2017-01-07T11:48:32Z</time>
      </trkpt>
      <trkpt lat="48.2815" lon="6.75019">
        <ele>488.97</ele>
        <time>2017-01-07T11:48:49Z</time>
      </trkpt>
      <trkpt lat="48.28146" lon="6.74981">
        <ele>488.49</ele>
        <time>2017-01-07T11:49:07Z</time>
      </trkpt>
      <trkpt lat="48.28145" lon="6.74938">
        <ele>485.6</ele>
        <time>2017-01-07T11:49:26Z</time>
      </trkpt>
      <trkpt lat="48.28137" lon="6.74902">
        <ele>484.16</ele>
        <time>2017-01-07T11:49:43Z</time>
      </trkpt>
      <trkpt lat="48.28141" lon="6.74876">
        <ele>484.64</ele>
        <time>2017-01-07T11:49:55Z</time>
      </trkpt>
      <trkpt lat="48.28142" lon="6.74834">
        <ele>486.56</ele>
        <time>2017-01-07T11:50:12Z</time>
      </trkpt>
      <trkpt lat="48.28142" lon="6.74816">
        <ele>487.05</ele>
        <time>2017-01-07T11:50:21Z</time>
      </trkpt>
      <trkpt lat="48.28145" lon="6.74791">
        <ele>485.12</ele>
        <time>2017-01-07T11:50:36Z</time>
      </trkpt>
      <trkpt lat="48.2814" lon="6.74798">
        <ele>482.72</ele>
        <time>2017-01-07T11:50:47Z</time>
      </trkpt>
      <trkpt lat="48.28138" lon="6.74808">
        <ele>481.28</ele>
        <time>2017-01-07T11:50:52Z</time>
      </trkpt>
      <trkpt lat="48.28131" lon="6.74834">
        <ele>479.84</ele>
        <time>2017-01-07T11:51:08Z</time>
      </trkpt>
      <trkpt lat="48.28126" lon="6.74845">
        <ele>479.84</ele>
        <time>2017-01-07T11:51:16Z</time>
      </trkpt>
      <trkpt lat="48.28115" lon="6.74864">
        <ele>477.43</ele>
        <time>2017-01-07T11:51:30Z</time>
      </trkpt>
      <trkpt lat="48.28102" lon="6.74892">
        <ele>475.03</ele>
        <time>2017-01-07T11:51:47Z</time>
      </trkpt>
      <trkpt lat="48.28098" lon="6.74905">
        <ele>474.55</ele>
        <time>2017-01-07T11:51:54Z</time>
      </trkpt>
      <trkpt lat="48.28095" lon="6.74957">
        <ele>473.59</ele>
        <time>2017-01-07T11:52:14Z</time>
      </trkpt>
      <trkpt lat="48.28095" lon="6.7496">
        <ele>473.59</ele>
        <time>2017-01-07T11:52:15Z</time>
      </trkpt>
      <trkpt lat="48.28096" lon="6.74997">
        <ele>473.59</ele>
        <time>2017-01-07T11:52:31Z</time>
      </trkpt>
      <trkpt lat="48.28096" lon="6.75039">
        <ele>473.11</ele>
        <time>2017-01-07T11:52:50Z</time>
      </trkpt>
      <trkpt lat="48.28097" lon="6.75071">
        <ele>470.7</ele>
        <time>2017-01-07T11:53:05Z</time>
      </trkpt>
      <trkpt lat="48.28096" lon="6.75107">
        <ele>471.18</ele>
        <time>2017-01-07T11:53:21Z</time>
      </trkpt>
      <trkpt lat="48.28089" lon="6.75148">
        <ele>469.74</ele>
        <time>2017-01-07T11:53:39Z</time>
      </trkpt>
      <trkpt lat="48.28082" lon="6.75176">
        <ele>467.34</ele>
        <time>2017-01-07T11:53:53Z</time>
      </trkpt>
      <trkpt lat="48.28069" lon="6.75207">
        <ele>463.49</ele>
        <time>2017-01-07T11:54:10Z</time>
      </trkpt>
      <trkpt lat="48.28063" lon="6.75214">
        <ele>463.97</ele>
        <time>2017-01-07T11:54:15Z</time>
      </trkpt>
      <trkpt lat="48.28056" lon="6.75218">
        <ele>464.93</ele>
        <time>2017-01-07T11:54:21Z</time>
      </trkpt>
      <trkpt lat="48.28031" lon="6.75218">
        <ele>466.86</ele>
        <time>2017-01-07T11:54:38Z</time>
      </trkpt>
      <trkpt lat="48.28014" lon="6.75215">
        <ele>469.26</ele>
        <time>2017-01-07T11:54:51Z</time>
      </trkpt>
      <trkpt lat="48.27992" lon="6.75208">
        <ele>469.74</ele>
        <time>2017-01-07T11:55:06Z</time>
      </trkpt>
      <trkpt lat="48.27971" lon="6.75204">
        <ele>468.3</ele>
        <time>2017-01-07T11:55:20Z</time>
      </trkpt>
      <trkpt lat="48.27951" lon="6.75198">
        <ele>467.82</ele>
        <time>2017-01-07T11:55:35Z</time>
      </trkpt>
      <trkpt lat="48.27924" lon="6.7519">
        <ele>466.86</ele>
        <time>2017-01-07T11:55:54Z</time>
      </trkpt>
      <trkpt lat="48.27906" lon="6.75189">
        <ele>464.45</ele>
        <time>2017-01-07T11:56:04Z</time>
      </trkpt>
      <trkpt lat="48.27896" lon="6.75192">
        <ele>463.97</ele>
        <time>2017-01-07T11:56:10Z</time>
      </trkpt>
      <trkpt lat="48.27869" lon="6.75195">
        <ele>463.49</ele>
        <time>2017-01-07T11:56:29Z</time>
      </trkpt>
      <trkpt lat="48.27851" lon="6.752">
        <ele>464.45</ele>
        <time>2017-01-07T11:56:42Z</time>
      </trkpt>
      <trkpt lat="48.27846" lon="6.75202">
        <ele>464.93</ele>
        <time>2017-01-07T11:56:46Z</time>
      </trkpt>
      <trkpt lat="48.27835" lon="6.75202">
        <ele>465.9</ele>
        <time>2017-01-07T11:56:53Z</time>
      </trkpt>
      <trkpt lat="48.27814" lon="6.75212">
        <ele>465.42</ele>
        <time>2017-01-07T11:57:10Z</time>
      </trkpt>
      <trkpt lat="48.27793" lon="6.75224">
        <ele>462.53</ele>
        <time>2017-01-07T11:57:25Z</time>
      </trkpt>
      <trkpt lat="48.2777" lon="6.75232">
        <ele>464.45</ele>
        <time>2017-01-07T11:57:41Z</time>
      </trkpt>
      <trkpt lat="48.27756" lon="6.7524">
        <ele>464.93</ele>
        <time>2017-01-07T11:57:53Z</time>
      </trkpt>
      <trkpt lat="48.27731" lon="6.75253">
        <ele>461.09</ele>
        <time>2017-01-07T11:58:11Z</time>
      </trkpt>
      <trkpt lat="48.27709" lon="6.75275">
        <ele>452.44</ele>
        <time>2017-01-07T11:58:27Z</time>
      </trkpt>
      <trkpt lat="48.27698" lon="6.75313">
        <ele>447.63</ele>
        <time>2017-01-07T11:58:46Z</time>
      </trkpt>
      <trkpt lat="48.27691" lon="6.75352">
        <ele>444.27</ele>
        <time>2017-01-07T11:59:03Z</time>
      </trkpt>
      <trkpt lat="48.27689" lon="6.75396">
        <ele>441.86</ele>
        <time>2017-01-07T11:59:23Z</time>
      </trkpt>
      <trkpt lat="48.27687" lon="6.75439">
        <ele>437.54</ele>
        <time>2017-01-07T11:59:43Z</time>
      </trkpt>
      <trkpt lat="48.27689" lon="6.75483">
        <ele>434.65</ele>
        <time>2017-01-07T12:00:03Z</time>
      </trkpt>
      <trkpt lat="48.27688" lon="6.75519">
        <ele>432.73</ele>
        <time>2017-01-07T12:00:20Z</time>
      </trkpt>
      <trkpt lat="48.27686" lon="6.75557">
        <ele>428.89</ele>
        <time>2017-01-07T12:00:38Z</time>
      </trkpt>
      <trkpt lat="48.27679" lon="6.756">
        <ele>424.56</ele>
        <time>2017-01-07T12:00:58Z</time>
      </trkpt>
      <trkpt lat="48.27654" lon="6.75605">
        <ele>422.16</ele>
        <time>2017-01-07T12:01:15Z</time>
      </trkpt>
      <trkpt lat="48.27637" lon="6.75577">
        <ele>421.19</ele>
        <time>2017-01-07T12:01:32Z</time>
      </trkpt>
      <trkpt lat="48.27628" lon="6.75556">
        <ele>419.75</ele>
        <time>2017-01-07T12:01:45Z</time>
      </trkpt>
      <trkpt lat="48.27608" lon="6.75532">
        <ele>419.27</ele>
        <time>2017-01-07T12:02:03Z</time>
      </trkpt>
      <trkpt lat="48.27587" lon="6.75509">
        <ele>416.87</ele>
        <time>2017-01-07T12:02:20Z</time>
      </trkpt>
      <trkpt lat="48.27578" lon="6.75501">
        <ele>416.87</ele>
        <time>2017-01-07T12:02:27Z</time>
      </trkpt>
      <trkpt lat="48.27549" lon="6.75489">
        <ele>413.98</ele>
        <time>2017-01-07T12:02:47Z</time>
      </trkpt>
      <trkpt lat="48.27527" lon="6.7548">
        <ele>409.66</ele>
        <time>2017-01-07T12:03:03Z</time>
      </trkpt>
      <trkpt lat="48.2751" lon="6.75481">
        <ele>404.37</ele>
        <time>2017-01-07T12:03:15Z</time>
      </trkpt>
      <trkpt lat="48.27485" lon="6.75494">
        <ele>398.6</ele>
        <time>2017-01-07T12:03:34Z</time>
      </trkpt>
      <trkpt lat="48.2746" lon="6.75506">
        <ele>399.08</ele>
        <time>2017-01-07T12:03:52Z</time>
      </trkpt>
      <trkpt lat="48.27444" lon="6.75515">
        <ele>394.28</ele>
        <time>2017-01-07T12:04:05Z</time>
      </trkpt>
      <trkpt lat="48.27433" lon="6.75525">
        <ele>391.39</ele>
        <time>2017-01-07T12:04:14Z</time>
      </trkpt>
      <trkpt lat="48.27412" lon="6.75557">
        <ele>389.47</ele>
        <time>2017-01-07T12:04:34Z</time>
      </trkpt>
      <trkpt lat="48.27385" lon="6.75559">
        <ele>389.47</ele>
        <time>2017-01-07T12:04:52Z</time>
      </trkpt>
      <trkpt lat="48.27382" lon="6.75555">
        <ele>389.95</ele>
        <time>2017-01-07T12:04:55Z</time>
      </trkpt>
      <trkpt lat="48.27377" lon="6.75548">
        <ele>389.47</ele>
        <time>2017-01-07T12:05:00Z</time>
      </trkpt>
      <trkpt lat="48.27368" lon="6.7552">
        <ele>388.99</ele>
        <time>2017-01-07T12:05:16Z</time>
      </trkpt>
      <trkpt lat="48.27366" lon="6.75512">
        <ele>389.47</ele>
        <time>2017-01-07T12:05:20Z</time>
      </trkpt>
      <trkpt lat="48.27352" lon="6.75469">
        <ele>392.36</ele>
        <time>2017-01-07T12:05:42Z</time>
      </trkpt>
      <trkpt lat="48.27341" lon="6.7543">
        <ele>395.72</ele>
        <time>2017-01-07T12:06:02Z</time>
      </trkpt>
      <trkpt lat="48.27336" lon="6.75413">
        <ele>398.12</ele>
        <time>2017-01-07T12:06:11Z</time>
      </trkpt>
      <trkpt lat="48.27322" lon="6.75382">
        <ele>401.01</ele>
        <time>2017-01-07T12:06:29Z</time>
      </trkpt>
      <trkpt lat="48.27303" lon="6.75351">
        <ele>403.89</ele>
        <time>2017-01-07T12:06:48Z</time>
      </trkpt>
      <trkpt lat="48.2729" lon="6.7534">
        <ele>404.85</ele>
        <time>2017-01-07T12:06:58Z</time>
      </trkpt>
      <trkpt lat="48.27284" lon="6.75338">
        <ele>405.81</ele>
        <time>2017-01-07T12:07:02Z</time>
      </trkpt>
      <trkpt lat="48.27276" lon="6.75337">
        <ele>406.29</ele>
        <time>2017-01-07T12:07:07Z</time>
      </trkpt>
      <trkpt lat="48.27257" lon="6.75365">
        <ele>409.18</ele>
        <time>2017-01-07T12:07:27Z</time>
      </trkpt>
      <trkpt lat="48.27243" lon="6.75373">
        <ele>411.58</ele>
        <time>2017-01-07T12:07:38Z</time>
      </trkpt>
      <trkpt lat="48.2723" lon="6.7536">
        <ele>413.98</ele>
        <time>2017-01-07T12:07:48Z</time>
      </trkpt>
      <trkpt lat="48.27213" lon="6.75329">
        <ele>415.43</ele>
        <time>2017-01-07T12:08:07Z</time>
      </trkpt>
      <trkpt lat="48.27187" lon="6.75306">
        <ele>417.35</ele>
        <time>2017-01-07T12:08:25Z</time>
      </trkpt>
      <trkpt lat="48.27165" lon="6.75289">
        <ele>418.31</ele>
        <time>2017-01-07T12:08:43Z</time>
      </trkpt>
      <trkpt lat="48.27162" lon="6.75286">
        <ele>418.79</ele>
        <time>2017-01-07T12:08:45Z</time>
      </trkpt>
      <trkpt lat="48.27143" lon="6.7526">
        <ele>419.27</ele>
        <time>2017-01-07T12:09:04Z</time>
      </trkpt>
      <trkpt lat="48.27141" lon="6.75253">
        <ele>418.79</ele>
        <time>2017-01-07T12:09:08Z</time>
      </trkpt>
      <trkpt lat="48.27142" lon="6.75224">
        <ele>420.23</ele>
        <time>2017-01-07T12:09:25Z</time>
      </trkpt>
      <trkpt lat="48.27161" lon="6.75197">
        <ele>421.68</ele>
        <time>2017-01-07T12:09:42Z</time>
      </trkpt>
      <trkpt lat="48.27143" lon="6.75173">
        <ele>420.71</ele>
        <time>2017-01-07T12:09:58Z</time>
      </trkpt>
      <trkpt lat="48.2712" lon="6.75184">
        <ele>424.08</ele>
        <time>2017-01-07T12:10:15Z</time>
      </trkpt>
      <trkpt lat="48.27096" lon="6.75214">
        <ele>426</ele>
        <time>2017-01-07T12:10:36Z</time>
      </trkpt>
      <trkpt lat="48.27075" lon="6.75235">
        <ele>429.85</ele>
        <time>2017-01-07T12:10:54Z</time>
      </trkpt>
      <trkpt lat="48.27055" lon="6.75257">
        <ele>433.69</ele>
        <time>2017-01-07T12:11:11Z</time>
      </trkpt>
      <trkpt lat="48.27055" lon="6.7529">
        <ele>433.69</ele>
        <time>2017-01-07T12:11:25Z</time>
      </trkpt>
      <trkpt lat="48.27058" lon="6.7531">
        <ele>434.17</ele>
        <time>2017-01-07T12:11:34Z</time>
      </trkpt>
      <trkpt lat="48.27066" lon="6.75349">
        <ele>434.17</ele>
        <time>2017-01-07T12:11:53Z</time>
      </trkpt>
      <trkpt lat="48.27081" lon="6.75385">
        <ele>435.61</ele>
        <time>2017-01-07T12:12:12Z</time>
      </trkpt>
      <trkpt lat="48.27097" lon="6.75414">
        <ele>437.06</ele>
        <time>2017-01-07T12:12:29Z</time>
      </trkpt>
      <trkpt lat="48.27115" lon="6.75456">
        <ele>437.54</ele>
        <time>2017-01-07T12:12:50Z</time>
      </trkpt>
      <trkpt lat="48.27123" lon="6.755">
        <ele>438.98</ele>
        <time>2017-01-07T12:13:10Z</time>
      </trkpt>
      <trkpt lat="48.27133" lon="6.75538">
        <ele>438.98</ele>
        <time>2017-01-07T12:13:29Z</time>
      </trkpt>
      <trkpt lat="48.27139" lon="6.7557">
        <ele>441.38</ele>
        <time>2017-01-07T12:13:46Z</time>
      </trkpt>
      <trkpt lat="48.27126" lon="6.7559">
        <ele>442.34</ele>
        <time>2017-01-07T12:14:02Z</time>
      </trkpt>
      <trkpt lat="48.27102" lon="6.75583">
        <ele>443.31</ele>
        <time>2017-01-07T12:14:18Z</time>
      </trkpt>
      <trkpt lat="48.27077" lon="6.75575">
        <ele>447.15</ele>
        <time>2017-01-07T12:14:37Z</time>
      </trkpt>
      <trkpt lat="48.27056" lon="6.75567">
        <ele>448.11</ele>
        <time>2017-01-07T12:14:52Z</time>
      </trkpt>
      <trkpt lat="48.27028" lon="6.75559">
        <ele>451.96</ele>
        <time>2017-01-07T12:15:13Z</time>
      </trkpt>
      <trkpt lat="48.27009" lon="6.75548">
        <ele>455.8</ele>
        <time>2017-01-07T12:15:28Z</time>
      </trkpt>
      <trkpt lat="48.26987" lon="6.75533">
        <ele>459.65</ele>
        <time>2017-01-07T12:15:45Z</time>
      </trkpt>
      <trkpt lat="48.26959" lon="6.75523">
        <ele>462.05</ele>
        <time>2017-01-07T12:16:04Z</time>
      </trkpt>
      <trkpt lat="48.26932" lon="6.75513">
        <ele>462.53</ele>
        <time>2017-01-07T12:16:23Z</time>
      </trkpt>
      <trkpt lat="48.26906" lon="6.75494">
        <ele>461.57</ele>
        <time>2017-01-07T12:16:40Z</time>
      </trkpt>
      <trkpt lat="48.26875" lon="6.75487">
        <ele>458.21</ele>
        <time>2017-01-07T12:17:00Z</time>
      </trkpt>
      <trkpt lat="48.26851" lon="6.75489">
        <ele>456.28</ele>
        <time>2017-01-07T12:17:15Z</time>
      </trkpt>
      <trkpt lat="48.26824" lon="6.75509">
        <ele>456.76</ele>
        <time>2017-01-07T12:17:35Z</time>
      </trkpt>
      <trkpt lat="48.26813" lon="6.75525">
        <ele>457.72</ele>
        <time>2017-01-07T12:17:45Z</time>
      </trkpt>
      <trkpt lat="48.26811" lon="6.75529">
        <ele>458.21</ele>
        <time>2017-01-07T12:17:47Z</time>
      </trkpt>
      <trkpt lat="48.26794" lon="6.75566">
        <ele>461.09</ele>
        <time>2017-01-07T12:18:06Z</time>
      </trkpt>
    </trkseg>
  </trk>
</gpx>